Observation data for Adrian on 05/24/2020      Previous  Date  Next       Current Mesonet Observations  Soil Data  Daily Summary Page  Observations in Plain Language
KAD1 240500Z 16018G23KT 16/11 A2982 RMK A01 T01630113  RH  072%=      5-min Rain = 0
KAD1 240501Z 16019KT 16/11 A2982 RMK A01 T01630114  RH  073%=      5-min Rain = 0
KAD1 240502Z 17020KT 16/11 A2982 RMK A01 T01630114  RH  073%=      5-min Rain = 0
KAD1 240503Z 17018KT 16/11 A2982 RMK A01 T01630114  RH  072%=      5-min Rain = 0
KAD1 240504Z 17018KT 16/11 A2982 RMK A01 T01630114  RH  073%=      5-min Rain = 0
KAD1 240505Z 17020KT 16/11 A2982 RMK A01 T01630114  RH  073%=      5-min Rain = 0
KAD1 240506Z 17019KT 16/11 A2982 RMK A01 T01630114  RH  073%=      5-min Rain = 0
KAD1 240507Z 17017G22KT 16/11 A2982 RMK A01 T01630114  RH  073%=      5-min Rain = 0
KAD1 240508Z 17018KT 16/11 A2982 RMK A01 T01630114  RH  073%=      5-min Rain = 0
KAD1 240509Z 17019G24KT 16/11 A2982 RMK A01 T01630114  RH  073%=      5-min Rain = 0
KAD1 240510Z 17017KT 16/11 A2982 RMK A01 T01630113  RH  073%=      5-min Rain = 0
KAD1 240511Z 17018KT 16/11 A2982 RMK A01 T01630113  RH  072%=      5-min Rain = 0
KAD1 240512Z 17019KT 16/11 A2982 RMK A01 T01630113  RH  073%=      5-min Rain = 0
KAD1 240513Z 17019KT 16/11 A2982 RMK A01 T01630114  RH  073%=      5-min Rain = 0
KAD1 240514Z 17018KT 16/11 A2982 RMK A01 T01630114  RH  073%=      5-min Rain = 0
KAD1 240515Z 18019G24KT 16/11 A2982 RMK A01 T01630114  RH  072%=      5-min Rain = 0
KAD1 240516Z 18019G24KT 16/11 A2982 RMK A01 T01630114  RH  073%=      5-min Rain = 0
KAD1 240517Z 18019KT 16/11 A2981 RMK A01 T01640114  RH  072%=      5-min Rain = 0
KAD1 240518Z 18020KT 16/11 A2982 RMK A01 T01640114  RH  072%=      5-min Rain = 0
KAD1 240519Z 18020KT 16/11 A2982 RMK A01 T01640114  RH  072%=      5-min Rain = 0
KAD1 240520Z 18018KT 16/11 A2982 RMK A01 T01630114  RH  072%=      5-min Rain = 0
KAD1 240521Z 17020KT 16/11 A2982 RMK A01 T01630114  RH  072%=      5-min Rain = 0
KAD1 240522Z 17019KT 16/11 A2982 RMK A01 T01640114  RH  072%=      5-min Rain = 0
KAD1 240523Z 18018KT 16/11 A2982 RMK A01 T01640114  RH  072%=      5-min Rain = 0
KAD1 240524Z 18017KT 16/11 A2982 RMK A01 T01640114  RH  073%=      5-min Rain = 0
KAD1 240525Z 18018KT 16/11 A2982 RMK A01 T01630114  RH  073%=      5-min Rain = 0
KAD1 240526Z 17018KT 16/11 A2982 RMK A01 T01630114  RH  073%=      5-min Rain = 0
KAD1 240527Z 18016G21KT 16/12 A2982 RMK A01 T01630115  RH  073%=      5-min Rain = 0
KAD1 240528Z 17017KT 16/11 A2982 RMK A01 T01630114  RH  073%=      5-min Rain = 0
KAD1 240529Z 17017KT 16/11 A2982 RMK A01 T01630114  RH  073%=      5-min Rain = 0
KAD1 240530Z 17016KT 16/11 A2982 RMK A01 T01630114  RH  073%=      5-min Rain = 0
KAD1 240531Z 17017KT 16/11 A2982 RMK A01 T01630114  RH  073%=      5-min Rain = 0
KAD1 240532Z 18019KT 16/11 A2982 RMK A01 T01630114  RH  073%=      5-min Rain = 0
KAD1 240533Z 18019KT 16/11 A2982 RMK A01 T01630114  RH  073%=      5-min Rain = 0
KAD1 240534Z 17018KT 16/11 A2982 RMK A01 T01630114  RH  073%=      5-min Rain = 0
KAD1 240535Z 18018KT 16/11 A2982 RMK A01 T01630114  RH  073%=      5-min Rain = 0
KAD1 240536Z 18019KT 16/11 A2982 RMK A01 T01630114  RH  073%=      5-min Rain = 0
KAD1 240537Z 18019KT 16/11 A2982 RMK A01 T01630114  RH  073%=      5-min Rain = 0
KAD1 240538Z 17018KT 16/11 A2982 RMK A01 T01630114  RH  073%=      5-min Rain = 0
KAD1 240539Z 17019KT 16/11 A2982 RMK A01 T01630114  RH  073%=      5-min Rain = 0
KAD1 240540Z 18019KT 16/11 A2982 RMK A01 T01630114  RH  073%=      5-min Rain = 0
KAD1 240541Z 18018KT 16/11 A2982 RMK A01 T01630114  RH  073%=      5-min Rain = 0
KAD1 240542Z 18020KT 16/11 A2981 RMK A01 T01630113  RH  073%=      5-min Rain = 0
KAD1 240543Z 18019KT 16/11 A2982 RMK A01 T01630113  RH  073%=      5-min Rain = 0
KAD1 240544Z 18020KT 16/11 A2981 RMK A01 T01630113  RH  072%=      5-min Rain = 0
KAD1 240545Z 18019KT 16/11 A2981 RMK A01 T01630113  RH  072%=      5-min Rain = 0
KAD1 240546Z 18018G24KT 16/11 A2981 RMK A01 T01640113  RH  072%=      5-min Rain = 0
KAD1 240547Z 18020G25KT 16/11 A2981 RMK A01 T01640113  RH  072%=      5-min Rain = 0
KAD1 240548Z 18019KT 16/11 A2981 RMK A01 T01640113  RH  072%=      5-min Rain = 0
KAD1 240549Z 18019KT 16/11 A2981 RMK A01 T01640112  RH  071%=      5-min Rain = 0
KAD1 240550Z 18019KT 16/11 A2981 RMK A01 T01640113  RH  071%=      5-min Rain = 0
KAD1 240551Z 18017G22KT 16/11 A2981 RMK A01 T01640112  RH  071%=      5-min Rain = 0
KAD1 240552Z 18019G25KT 16/11 A2981 RMK A01 T01640112  RH  071%=      5-min Rain = 0
KAD1 240553Z 18019KT 17/11 A2981 RMK A01 T01650112  RH  071%=      5-min Rain = 0
KAD1 240554Z 18019KT 17/11 A2981 RMK A01 T01650112  RH  071%=      5-min Rain = 0
KAD1 240555Z 18020G25KT 17/11 A2981 RMK A01 T01650112  RH  071%=      5-min Rain = 0
KAD1 240556Z 18019G24KT 17/11 A2981 RMK A01 T01650112  RH  071%=      5-min Rain = 0
KAD1 240557Z 18018G25KT 17/11 A2981 RMK A01 T01650111  RH  070%=      5-min Rain = 0
KAD1 240558Z 18020KT 17/11 A2981 RMK A01 T01660111  RH  070%=      5-min Rain = 0
KAD1 240559Z 18018KT 17/11 A2981 RMK A01 T01660111  RH  070%=      5-min Rain = 0
KAD1 240600Z 18020KT 17/11 A2981 RMK A01 T01670111  RH  070%=      5-min Rain = 0
KAD1 240601Z 18020G25KT 17/11 A2981 RMK A01 T01670111  RH  069%=      5-min Rain = 0
KAD1 240602Z 18019KT 17/11 A2981 RMK A01 T01680111  RH  069%=      5-min Rain = 0
KAD1 240603Z 18019KT 17/11 A2981 RMK A01 T01680111  RH  069%=      5-min Rain = 0
KAD1 240604Z 18019G24KT 17/11 A2981 RMK A01 T01680111  RH  069%=      5-min Rain = 0
KAD1 240605Z 18019KT 17/11 A2981 RMK A01 T01690111  RH  069%=      5-min Rain = 0
KAD1 240606Z 18018KT 17/11 A2981 RMK A01 T01690111  RH  068%=      5-min Rain = 0
KAD1 240607Z 18021KT 17/11 A2981 RMK A01 T01690111  RH  068%=      5-min Rain = 0
KAD1 240608Z 18019KT 17/11 A2981 RMK A01 T01690110  RH  068%=      5-min Rain = 0
KAD1 240609Z 18019KT 17/11 A2981 RMK A01 T01700110  RH  068%=      5-min Rain = 0
KAD1 240610Z 18021G27KT 17/11 A2981 RMK A01 T01700111  RH  068%=      5-min Rain = 0
KAD1 240611Z 18020KT 17/11 A2981 RMK A01 T01700110  RH  068%=      5-min Rain = 0
KAD1 240612Z 18019KT 17/11 A2981 RMK A01 T01700110  RH  068%=      5-min Rain = 0
KAD1 240613Z 18020G25KT 17/11 A2981 RMK A01 T01710111  RH  068%=      5-min Rain = 0
KAD1 240614Z 18022G27KT 17/11 A2981 RMK A01 T01710111  RH  068%=      5-min Rain = 0
KAD1 240615Z 18018KT 17/11 A2981 RMK A01 T01700110  RH  068%=      5-min Rain = 0
KAD1 240616Z 18018G23KT 17/11 A2981 RMK A01 T01700110  RH  068%=      5-min Rain = 0
KAD1 240617Z 18018KT 17/11 A2981 RMK A01 T01700110  RH  068%=      5-min Rain = 0
KAD1 240618Z 18021KT 17/11 A2981 RMK A01 T01690110  RH  068%=      5-min Rain = 0
KAD1 240619Z 18019G26KT 17/11 A2981 RMK A01 T01690110  RH  068%=      5-min Rain = 0
KAD1 240620Z 18019G24KT 17/11 A2981 RMK A01 T01690110  RH  068%=      5-min Rain = 0
KAD1 240621Z 18020KT 17/11 A2981 RMK A01 T01690110  RH  068%=      5-min Rain = 0
KAD1 240622Z 18020KT 17/11 A2981 RMK A01 T01690110  RH  068%=      5-min Rain = 0
KAD1 240623Z 18020KT 17/11 A2981 RMK A01 T01690110  RH  068%=      5-min Rain = 0
KAD1 240624Z 18019G24KT 17/11 A2981 RMK A01 T01690110  RH  068%=      5-min Rain = 0
KAD1 240625Z 17018G23KT 17/11 A2981 RMK A01 T01690110  RH  068%=      5-min Rain = 0
KAD1 240626Z 18019KT 17/11 A2981 RMK A01 T01680110  RH  068%=      5-min Rain = 0
KAD1 240627Z 18019KT 17/11 A2981 RMK A01 T01680110  RH  068%=      5-min Rain = 0
KAD1 240628Z 18020KT 17/11 A2981 RMK A01 T01680109  RH  068%=      5-min Rain = 0
KAD1 240629Z 18019G24KT 17/11 A2981 RMK A01 T01680110  RH  068%=      5-min Rain = 0
KAD1 240630Z 18019KT 17/11 A2981 RMK A01 T01680109  RH  068%=      5-min Rain = 0
KAD1 240631Z 18017KT 17/11 A2982 RMK A01 T01680109  RH  068%=      5-min Rain = 0
KAD1 240632Z 18019G24KT 17/11 A2981 RMK A01 T01680109  RH  068%=      5-min Rain = 0
KAD1 240633Z 17018KT 17/11 A2982 RMK A01 T01680109  RH  068%=      5-min Rain = 0
KAD1 240634Z 17019KT 17/11 A2982 RMK A01 T01680109  RH  068%=      5-min Rain = 0
KAD1 240635Z 18019G25KT 17/11 A2982 RMK A01 T01680109  RH  068%=      5-min Rain = 0
KAD1 240636Z 17018KT 17/11 A2982 RMK A01 T01680109  RH  068%=      5-min Rain = 0
KAD1 240637Z 17019KT 17/11 A2982 RMK A01 T01680109  RH  068%=      5-min Rain = 0
KAD1 240638Z 18018G23KT 17/11 A2982 RMK A01 T01680109  RH  068%=      5-min Rain = 0
KAD1 240639Z 17018KT 17/11 A2982 RMK A01 T01680109  RH  068%=      5-min Rain = 0
KAD1 240640Z 17019G24KT 17/11 A2982 RMK A01 T01680108  RH  068%=      5-min Rain = 0
KAD1 240641Z 17019KT 17/11 A2982 RMK A01 T01690109  RH  067%=      5-min Rain = 0
KAD1 240642Z 17017G22KT 17/11 A2982 RMK A01 T01690108  RH  067%=      5-min Rain = 0
KAD1 240643Z 17018G24KT 17/11 A2982 RMK A01 T01690108  RH  067%=      5-min Rain = 0
KAD1 240644Z 17018KT 17/11 A2982 RMK A01 T01690108  RH  067%=      5-min Rain = 0
KAD1 240645Z 17017KT 17/11 A2982 RMK A01 T01690108  RH  067%=      5-min Rain = 0
KAD1 240646Z 17018KT 17/11 A2982 RMK A01 T01690108  RH  067%=      5-min Rain = 0
KAD1 240647Z 17016KT 17/11 A2982 RMK A01 T01690108  RH  067%=      5-min Rain = 0
KAD1 240648Z 17017KT 17/11 A2982 RMK A01 T01680108  RH  067%=      5-min Rain = 0
KAD1 240649Z 17015G20KT 17/11 A2982 RMK A01 T01680108  RH  068%=      5-min Rain = 0
KAD1 240650Z 17016KT 17/11 A2982 RMK A01 T01670107  RH  068%=      5-min Rain = 0
KAD1 240651Z 17017KT 17/11 A2982 RMK A01 T01670108  RH  068%=      5-min Rain = 0
KAD1 240652Z 17016KT 17/11 A2982 RMK A01 T01670108  RH  068%=      5-min Rain = 0
KAD1 240653Z 17016KT 17/11 A2982 RMK A01 T01670108  RH  068%=      5-min Rain = 0
KAD1 240654Z 17015KT 17/11 A2982 RMK A01 T01670107  RH  068%=      5-min Rain = 0
KAD1 240655Z 17016KT 17/11 A2982 RMK A01 T01670107  RH  068%=      5-min Rain = 0
KAD1 240656Z 17016KT 17/11 A2982 RMK A01 T01670108  RH  068%=      5-min Rain = 0
KAD1 240657Z 17016KT 17/11 A2982 RMK A01 T01660108  RH  068%=      5-min Rain = 0
KAD1 240658Z 17016KT 17/11 A2982 RMK A01 T01660107  RH  068%=      5-min Rain = 0
KAD1 240659Z 17017KT 17/11 A2982 RMK A01 T01660107  RH  068%=      5-min Rain = 0
KAD1 240700Z 17016KT 17/11 A2982 RMK A01 T01660107  RH  068%=      5-min Rain = 0
KAD1 240701Z 17017KT 17/11 A2981 RMK A01 T01660107  RH  068%=      5-min Rain = 0
KAD1 240702Z 17017KT 17/11 A2981 RMK A01 T01660107  RH  068%=      5-min Rain = 0
KAD1 240703Z 17016KT 17/11 A2982 RMK A01 T01660107  RH  068%=      5-min Rain = 0
KAD1 240704Z 17016KT 17/11 A2981 RMK A01 T01660107  RH  068%=      5-min Rain = 0
KAD1 240705Z 17015G20KT 17/11 A2982 RMK A01 T01660107  RH  068%=      5-min Rain = 0
KAD1 240706Z 17017KT 17/11 A2982 RMK A01 T01650107  RH  069%=      5-min Rain = 0
KAD1 240707Z 17015KT 17/11 A2982 RMK A01 T01650107  RH  069%=      5-min Rain = 0
KAD1 240708Z 16015KT 17/11 A2982 RMK A01 T01650107  RH  069%=      5-min Rain = 0
KAD1 240709Z 17015KT 16/11 A2982 RMK A01 T01640107  RH  069%=      5-min Rain = 0
KAD1 240710Z 17016KT 16/11 A2982 RMK A01 T01640107  RH  069%=      5-min Rain = 0
KAD1 240711Z 17015KT 16/11 A2982 RMK A01 T01630107  RH  069%=      5-min Rain = 0
KAD1 240712Z 16017KT 16/11 A2982 RMK A01 T01640107  RH  069%=      5-min Rain = 0
KAD1 240713Z 16016KT 16/11 A2982 RMK A01 T01640107  RH  069%=      5-min Rain = 0
KAD1 240714Z 17016KT 16/11 A2982 RMK A01 T01630107  RH  069%=      5-min Rain = 0
KAD1 240715Z 17015KT 16/11 A2982 RMK A01 T01630107  RH  069%=      5-min Rain = 0
KAD1 240716Z 17014KT 16/11 A2982 RMK A01 T01620107  RH  070%=      5-min Rain = 0
KAD1 240717Z 17015KT 16/11 A2982 RMK A01 T01620107  RH  070%=      5-min Rain = 0
KAD1 240718Z 17014KT 16/11 A2982 RMK A01 T01610106  RH  070%=      5-min Rain = 0
KAD1 240719Z 17015KT 16/11 A2982 RMK A01 T01610106  RH  070%=      5-min Rain = 0
KAD1 240720Z 17014KT 16/11 A2982 RMK A01 T01610107  RH  070%=      5-min Rain = 0
KAD1 240721Z 16016KT 16/11 A2982 RMK A01 T01600106  RH  070%=      5-min Rain = 0
KAD1 240722Z 17015KT 16/11 A2982 RMK A01 T01600106  RH  070%=      5-min Rain = 0
KAD1 240723Z 17015KT 16/11 A2982 RMK A01 T01600106  RH  070%=      5-min Rain = 0
KAD1 240724Z 17016KT 16/11 A2982 RMK A01 T01600106  RH  070%=      5-min Rain = 0
KAD1 240725Z 17016KT 16/11 A2981 RMK A01 T01600106  RH  071%=      5-min Rain = 0
KAD1 240726Z 17015KT 16/11 A2981 RMK A01 T01590106  RH  071%=      5-min Rain = 0
KAD1 240727Z 17016KT 16/11 A2981 RMK A01 T01590106  RH  071%=      5-min Rain = 0
KAD1 240728Z 17015KT 16/11 A2981 RMK A01 T01600106  RH  071%=      5-min Rain = 0
KAD1 240729Z 16014KT 16/11 A2981 RMK A01 T01590106  RH  071%=      5-min Rain = 0
KAD1 240730Z 17014KT 16/11 A2981 RMK A01 T01590106  RH  071%=      5-min Rain = 0
KAD1 240731Z 17015KT 16/11 A2981 RMK A01 T01580106  RH  071%=      5-min Rain = 0
KAD1 240732Z 17016KT 16/11 A2981 RMK A01 T01590106  RH  071%=      5-min Rain = 0
KAD1 240733Z 17016KT 16/11 A2981 RMK A01 T01590106  RH  071%=      5-min Rain = 0
KAD1 240734Z 17016KT 16/11 A2981 RMK A01 T01590106  RH  071%=      5-min Rain = 0
KAD1 240735Z 17016KT 16/11 A2981 RMK A01 T01600106  RH  070%=      5-min Rain = 0
KAD1 240736Z 17016KT 16/11 A2981 RMK A01 T01600106  RH  070%=      5-min Rain = 0
KAD1 240737Z 17017KT 16/11 A2981 RMK A01 T01600106  RH  070%=      5-min Rain = 0
KAD1 240738Z 17015KT 16/11 A2981 RMK A01 T01610107  RH  070%=      5-min Rain = 0
KAD1 240739Z 17017KT 16/11 A2981 RMK A01 T01620107  RH  070%=      5-min Rain = 0
KAD1 240740Z 17017KT 16/11 A2981 RMK A01 T01620107  RH  070%=      5-min Rain = 0
KAD1 240741Z 17016KT 16/11 A2981 RMK A01 T01630107  RH  070%=      5-min Rain = 0
KAD1 240742Z 17016KT 16/11 A2981 RMK A01 T01620107  RH  070%=      5-min Rain = 0
KAD1 240743Z 17017KT 16/11 A2981 RMK A01 T01620107  RH  070%=      5-min Rain = 0
KAD1 240744Z 17017KT 16/11 A2982 RMK A01 T01620107  RH  070%=      5-min Rain = 0
KAD1 240745Z 17017KT 16/11 A2982 RMK A01 T01620107  RH  070%=      5-min Rain = 0
KAD1 240746Z 17016KT 16/11 A2982 RMK A01 T01620107  RH  070%=      5-min Rain = 0
KAD1 240747Z 17017KT 16/11 A2982 RMK A01 T01620107  RH  070%=      5-min Rain = 0
KAD1 240748Z 17017KT 16/11 A2982 RMK A01 T01620107  RH  070%=      5-min Rain = 0
KAD1 240749Z 16016KT 16/11 A2982 RMK A01 T01620107  RH  070%=      5-min Rain = 0
KAD1 240750Z 17017KT 16/11 A2982 RMK A01 T01610107  RH  070%=      5-min Rain = 0
KAD1 240751Z 17016KT 16/11 A2982 RMK A01 T01610107  RH  070%=      5-min Rain = 0
KAD1 240752Z 17015KT 16/11 A2982 RMK A01 T01610107  RH  071%=      5-min Rain = 0
KAD1 240753Z 17016KT 16/11 A2982 RMK A01 T01600107  RH  071%=      5-min Rain = 0
KAD1 240754Z 17018KT 16/11 A2982 RMK A01 T01600107  RH  071%=      5-min Rain = 0
KAD1 240755Z 17016KT 16/11 A2982 RMK A01 T01600107  RH  071%=      5-min Rain = 0
KAD1 240756Z 17017KT 16/11 A2982 RMK A01 T01590107  RH  071%=      5-min Rain = 0
KAD1 240757Z 17016KT 16/11 A2982 RMK A01 T01590107  RH  071%=      5-min Rain = 0
KAD1 240758Z 17018KT 16/11 A2982 RMK A01 T01600107  RH  071%=      5-min Rain = 0
KAD1 240759Z 17017KT 16/11 A2982 RMK A01 T01600107  RH  071%=      5-min Rain = 0
KAD1 240800Z 17018KT 16/11 A2982 RMK A01 T01600107  RH  071%=      5-min Rain = 0
KAD1 240801Z 17017KT 16/11 A2982 RMK A01 T01610108  RH  070%=      5-min Rain = 0
KAD1 240802Z 17015KT 16/11 A2982 RMK A01 T01610108  RH  070%=      5-min Rain = 0
KAD1 240803Z 17017KT 16/11 A2982 RMK A01 T01610108  RH  071%=      5-min Rain = 0
KAD1 240804Z 17017KT 16/11 A2982 RMK A01 T01610108  RH  071%=      5-min Rain = 0
KAD1 240805Z 17016KT 16/11 A2982 RMK A01 T01610108  RH  071%=      5-min Rain = 0
KAD1 240806Z 17017KT 16/11 A2982 RMK A01 T01610108  RH  071%=      5-min Rain = 0
KAD1 240807Z 17016KT 16/11 A2982 RMK A01 T01610108  RH  071%=      5-min Rain = 0
KAD1 240808Z 17016G21KT 16/11 A2983 RMK A01 T01610108  RH  071%=      5-min Rain = 0
KAD1 240809Z 17017KT 16/11 A2983 RMK A01 T01610108  RH  071%=      5-min Rain = 0
KAD1 240810Z 17017KT 16/11 A2983 RMK A01 T01610108  RH  071%=      5-min Rain = 0
KAD1 240811Z 17015G20KT 16/11 A2983 RMK A01 T01610108  RH  071%=      5-min Rain = 0
KAD1 240812Z 17017KT 16/11 A2983 RMK A01 T01610108  RH  071%=      5-min Rain = 0
KAD1 240813Z 17015KT 16/11 A2983 RMK A01 T01610108  RH  071%=      5-min Rain = 0
KAD1 240814Z 17018KT 16/11 A2983 RMK A01 T01610108  RH  071%=      5-min Rain = 0
KAD1 240815Z 17017KT 16/11 A2983 RMK A01 T01620109  RH  071%=      5-min Rain = 0
KAD1 240816Z 17017KT 16/11 A2983 RMK A01 T01630109  RH  071%=      5-min Rain = 0
KAD1 240817Z 17018G23KT 16/11 A2983 RMK A01 T01630109  RH  071%=      5-min Rain = 0
KAD1 240818Z 17018KT 16/11 A2983 RMK A01 T01630110  RH  071%=      5-min Rain = 0
KAD1 240819Z 17016KT 16/11 A2983 RMK A01 T01630110  RH  071%=      5-min Rain = 0
KAD1 240820Z 17017G22KT 16/11 A2983 RMK A01 T01640110  RH  071%=      5-min Rain = 0
KAD1 240821Z 17017G22KT 16/11 A2983 RMK A01 T01640111  RH  071%=      5-min Rain = 0
KAD1 240822Z 17019G25KT 16/11 A2983 RMK A01 T01640111  RH  071%=      5-min Rain = 0
KAD1 240823Z 17020G26KT 16/11 A2983 RMK A01 T01640112  RH  071%=      5-min Rain = 0
KAD1 240824Z 18018KT 17/11 A2983 RMK A01 T01660112  RH  071%=      5-min Rain = 0
KAD1 240825Z 17020KT 17/11 A2983 RMK A01 T01660112  RH  070%=      5-min Rain = 0
KAD1 240826Z 17019KT 17/11 A2983 RMK A01 T01660112  RH  070%=      5-min Rain = 0
KAD1 240827Z 18019G26KT 17/11 A2983 RMK A01 T01660112  RH  071%=      5-min Rain = 0
KAD1 240828Z 18017G24KT 17/11 A2983 RMK A01 T01660113  RH  071%=      5-min Rain = 0
KAD1 240829Z 17019KT 17/11 A2983 RMK A01 T01670114  RH  071%=      5-min Rain = 0
KAD1 240830Z 18019KT 17/11 A2983 RMK A01 T01670114  RH  071%=      5-min Rain = 0
KAD1 240831Z 18017KT 17/11 A2983 RMK A01 T01680114  RH  071%=      5-min Rain = 0
KAD1 240832Z 18019KT 17/11 A2983 RMK A01 T01680114  RH  071%=      5-min Rain = 0
KAD1 240833Z 18018KT 17/12 A2983 RMK A01 T01680115  RH  071%=      5-min Rain = 0
KAD1 240834Z 18019KT 17/12 A2982 RMK A01 T01680115  RH  071%=      5-min Rain = 0
KAD1 240835Z 17024G29KT 17/12 A2982 RMK A01 T01690116  RH  071%=      5-min Rain = 0
KAD1 240836Z 18021KT 17/12 A2982 RMK A01 T01700116  RH  070%=      5-min Rain = 0
KAD1 240837Z 17019KT 17/12 A2982 RMK A01 T01710116  RH  070%=      5-min Rain = 0
KAD1 240838Z 18020G25KT 17/12 A2982 RMK A01 T01710116  RH  070%=      5-min Rain = 0
KAD1 240839Z 18022G27KT 17/12 A2982 RMK A01 T01710116  RH  070%=      5-min Rain = 0
KAD1 240840Z 18020G25KT 17/12 A2982 RMK A01 T01710116  RH  070%=      5-min Rain = 0
KAD1 240841Z 18022G27KT 17/12 A2982 RMK A01 T01710116  RH  070%=      5-min Rain = 0
KAD1 240842Z 18022KT 17/12 A2982 RMK A01 T01720116  RH  070%=      5-min Rain = 0
KAD1 240843Z 18022KT 17/12 A2982 RMK A01 T01720116  RH  070%=      5-min Rain = 0
KAD1 240844Z 18023G28KT 17/12 A2982 RMK A01 T01730116  RH  069%=      5-min Rain = 0
KAD1 240845Z 18023KT 17/12 A2982 RMK A01 T01730116  RH  069%=      5-min Rain = 0
KAD1 240846Z 18021KT 17/12 A2982 RMK A01 T01730116  RH  069%=      5-min Rain = 0
KAD1 240847Z 18024G30KT 17/12 A2982 RMK A01 T01730116  RH  069%=      5-min Rain = 0
KAD1 240848Z 18021G26KT 17/12 A2982 RMK A01 T01730116  RH  069%=      5-min Rain = 0
KAD1 240849Z 18023G29KT 17/12 A2982 RMK A01 T01730116  RH  069%=      5-min Rain = 0
KAD1 240850Z 18022KT 17/12 A2982 RMK A01 T01730115  RH  069%=      5-min Rain = 0
KAD1 240851Z 18021G26KT 17/12 A2982 RMK A01 T01730115  RH  069%=      5-min Rain = 0
KAD1 240852Z 18023G28KT 17/12 A2982 RMK A01 T01740116  RH  069%=      5-min Rain = 0
KAD1 240853Z 18023KT 17/12 A2982 RMK A01 T01740115  RH  069%=      5-min Rain = 0
KAD1 240854Z 18023G30KT 17/12 A2982 RMK A01 T01740115  RH  068%=      5-min Rain = 0
KAD1 240855Z 18028G33KT 18/12 A2982 RMK A01 T01750115  RH  068%=      5-min Rain = 0
KAD1 240856Z 18024KT 18/12 A2982 RMK A01 T01750115  RH  068%=      5-min Rain = 0
KAD1 240857Z 18026KT 18/12 A2982 RMK A01 T01750115  RH  068%=      5-min Rain = 0
KAD1 240858Z 18021KT 18/12 A2982 RMK A01 T01760115  RH  067%=      5-min Rain = 0
KAD1 240859Z 18019G24KT 18/12 A2982 RMK A01 T01750115  RH  068%=      5-min Rain = 0
KAD1 240900Z 18023G28KT 17/12 A2982 RMK A01 T01740115  RH  068%=      5-min Rain = 0
KAD1 240901Z 18023G28KT 17/11 A2982 RMK A01 T01740114  RH  068%=      5-min Rain = 0
KAD1 240902Z 18022KT 17/11 A2982 RMK A01 T01740114  RH  068%=      5-min Rain = 0
KAD1 240903Z 18021G26KT 17/11 A2982 RMK A01 T01740114  RH  068%=      5-min Rain = 0
KAD1 240904Z 18023G30KT 18/11 A2982 RMK A01 T01750114  RH  068%=      5-min Rain = 0
KAD1 240905Z 18024G32KT 18/11 A2982 RMK A01 T01750114  RH  068%=      5-min Rain = 0
KAD1 240906Z 18022G27KT 18/11 A2982 RMK A01 T01750114  RH  067%=      5-min Rain = 0
KAD1 240907Z 18023KT 18/11 A2982 RMK A01 T01750114  RH  067%=      5-min Rain = 0
KAD1 240908Z 18021KT 18/11 A2982 RMK A01 T01750114  RH  068%=      5-min Rain = 0
KAD1 240909Z 18023G29KT 17/11 A2982 RMK A01 T01740114  RH  068%=      5-min Rain = 0
KAD1 240910Z 18024G29KT 17/12 A2982 RMK A01 T01740115  RH  068%=      5-min Rain = 0
KAD1 240911Z 18024KT 17/11 A2982 RMK A01 T01740114  RH  068%=      5-min Rain = 0
KAD1 240912Z 18025G31KT 17/12 A2982 RMK A01 T01740115  RH  068%=      5-min Rain = 0
KAD1 240913Z 18026G32KT 18/12 A2982 RMK A01 T01750115  RH  068%=      5-min Rain = 0
KAD1 240914Z 18023KT 17/12 A2982 RMK A01 T01740115  RH  068%=      5-min Rain = 0
KAD1 240915Z 18025G33KT 17/12 A2981 RMK A01 T01740115  RH  068%=      5-min Rain = 0
KAD1 240916Z 18023KT 18/12 A2981 RMK A01 T01750115  RH  068%=      5-min Rain = 0
KAD1 240917Z 18025G33KT 17/12 A2981 RMK A01 T01740115  RH  068%=      5-min Rain = 0
KAD1 240918Z 18025G31KT 18/12 A2981 RMK A01 T01750115  RH  068%=      5-min Rain = 0
KAD1 240919Z 18027G33KT 17/12 A2981 RMK A01 T01740115  RH  068%=      5-min Rain = 0
KAD1 240920Z 18026G32KT 17/11 A2981 RMK A01 T01740114  RH  068%=      5-min Rain = 0
KAD1 240921Z 18021G29KT 17/11 A2982 RMK A01 T01740114  RH  068%=      5-min Rain = 0
KAD1 240922Z 18024G29KT 17/11 A2981 RMK A01 T01730114  RH  068%=      5-min Rain = 0
KAD1 240923Z 18023G29KT 17/11 A2981 RMK A01 T01720114  RH  068%=      5-min Rain = 0
KAD1 240924Z 18025KT 17/11 A2981 RMK A01 T01720114  RH  068%=      5-min Rain = 0
KAD1 240925Z 18028KT 17/11 A2981 RMK A01 T01720114  RH  069%=      5-min Rain = 0
KAD1 240926Z 18023G28KT 17/11 A2981 RMK A01 T01720114  RH  068%=      5-min Rain = 0
KAD1 240927Z 18026G31KT 17/11 A2981 RMK A01 T01710113  RH  069%=      5-min Rain = 0
KAD1 240928Z 18024G30KT 17/11 A2981 RMK A01 T01710113  RH  069%=      5-min Rain = 0
KAD1 240929Z 18024KT 17/11 A2981 RMK A01 T01710113  RH  069%=      5-min Rain = 0
KAD1 240930Z 17022G30KT 17/11 A2981 RMK A01 T01710113  RH  069%=      5-min Rain = 0
KAD1 240931Z 18023KT 17/11 A2981 RMK A01 T01700113  RH  069%=      5-min Rain = 0
KAD1 240932Z 18024G30KT 17/11 A2981 RMK A01 T01700113  RH  069%=      5-min Rain = 0
KAD1 240933Z 18022G32KT 17/11 A2981 RMK A01 T01700113  RH  069%=      5-min Rain = 0
KAD1 240934Z 18023G28KT 17/11 A2981 RMK A01 T01690113  RH  069%=      5-min Rain = 0
KAD1 240935Z 18024KT 17/11 A2981 RMK A01 T01690113  RH  069%=      5-min Rain = 0
KAD1 240936Z 18024G29KT 17/11 A2981 RMK A01 T01690113  RH  069%=      5-min Rain = 0
KAD1 240937Z 18022G27KT 17/11 A2981 RMK A01 T01690113  RH  070%=      5-min Rain = 0
KAD1 240938Z 18024G29KT 17/11 A2981 RMK A01 T01680113  RH  070%=      5-min Rain = 0
KAD1 240939Z 18021G26KT 17/11 A2981 RMK A01 T01680112  RH  070%=      5-min Rain = 0
KAD1 240940Z 18021G28KT 17/11 A2981 RMK A01 T01680113  RH  070%=      5-min Rain = 0
KAD1 240941Z 18021G28KT 17/11 A2981 RMK A01 T01670113  RH  070%=      5-min Rain = 0
KAD1 240942Z 18022G27KT 17/11 A2981 RMK A01 T01670113  RH  070%=      5-min Rain = 0
KAD1 240943Z 18022G29KT 17/11 A2982 RMK A01 T01670112  RH  070%=      5-min Rain = 0
KAD1 240944Z 18017G23KT 17/11 A2982 RMK A01 T01670112  RH  070%=      5-min Rain = 0
KAD1 240945Z 18021G27KT 17/11 A2982 RMK A01 T01670113  RH  070%=      5-min Rain = 0
KAD1 240946Z 18025G32KT 17/11 A2982 RMK A01 T01660113  RH  071%=      5-min Rain = 0
KAD1 240947Z 18024G29KT 17/11 A2982 RMK A01 T01660113  RH  071%=      5-min Rain = 0
KAD1 240948Z 18019G27KT 17/11 A2982 RMK A01 T01670113  RH  070%=      5-min Rain = 0
KAD1 240949Z 18021KT 17/11 A2982 RMK A01 T01660113  RH  071%=      5-min Rain = 0
KAD1 240950Z 18022G27KT 17/11 A2981 RMK A01 T01660113  RH  071%=      5-min Rain = 0
KAD1 240951Z 18026G32KT 17/11 A2981 RMK A01 T01660113  RH  071%=      5-min Rain = 0
KAD1 240952Z 18026G32KT 17/11 A2982 RMK A01 T01670113  RH  071%=      5-min Rain = 0
KAD1 240953Z 18024G31KT 17/11 A2982 RMK A01 T01670113  RH  070%=      5-min Rain = 0
KAD1 240954Z 19019G26KT 17/11 A2982 RMK A01 T01670113  RH  070%=      5-min Rain = 0
KAD1 240955Z 19020KT 17/11 A2983 RMK A01 T01670113  RH  070%=      5-min Rain = 0
KAD1 240956Z 20021KT 17/11 A2983 RMK A01 T01660113  RH  071%=      5-min Rain = 0
KAD1 240957Z 20020G26KT 17/11 A2983 RMK A01 T01650113  RH  071%=      5-min Rain = 0
KAD1 240958Z 20019KT 16/11 A2983 RMK A01 T01640112  RH  071%=      5-min Rain = 0
KAD1 240959Z 19020KT 16/11 A2983 RMK A01 T01640113  RH  072%=      5-min Rain = 0
KAD1 241000Z 19020G26KT 16/11 A2983 RMK A01 T01640112  RH  071%=      5-min Rain = 0
KAD1 241001Z 19019KT 16/11 A2983 RMK A01 T01630112  RH  072%=      5-min Rain = 0
KAD1 241002Z 19021KT 16/11 A2982 RMK A01 T01630112  RH  072%=      5-min Rain = 0
KAD1 241003Z 19019KT 16/11 A2983 RMK A01 T01630112  RH  072%=      5-min Rain = 0
KAD1 241004Z 19021G26KT 16/11 A2983 RMK A01 T01630112  RH  072%=      5-min Rain = 0
KAD1 241005Z 19022KT 16/11 A2983 RMK A01 T01630112  RH  072%=      5-min Rain = 0
KAD1 241006Z 19021G27KT 16/11 A2983 RMK A01 T01630111  RH  072%=      5-min Rain = 0
KAD1 241007Z 18023KT 16/11 A2982 RMK A01 T01630111  RH  072%=      5-min Rain = 0
KAD1 241008Z 18020G28KT 16/11 A2982 RMK A01 T01630111  RH  071%=      5-min Rain = 0
KAD1 241009Z 19023G28KT 16/11 A2982 RMK A01 T01630111  RH  071%=      5-min Rain = 0
KAD1 241010Z 19023KT 16/11 A2983 RMK A01 T01640112  RH  071%=      5-min Rain = 0
KAD1 241011Z 18024KT 16/11 A2982 RMK A01 T01630112  RH  071%=      5-min Rain = 0
KAD1 241012Z 19022KT 16/11 A2983 RMK A01 T01630112  RH  071%=      5-min Rain = 0
KAD1 241013Z 18023G29KT 16/11 A2982 RMK A01 T01640112  RH  072%=      5-min Rain = 0
KAD1 241014Z 18020KT 16/11 A2983 RMK A01 T01640112  RH  072%=      5-min Rain = 0
KAD1 241015Z 18024KT 16/11 A2982 RMK A01 T01630112  RH  072%=      5-min Rain = 0
KAD1 241016Z 18022KT 16/11 A2982 RMK A01 T01630112  RH  072%=      5-min Rain = 0
KAD1 241017Z 18023G28KT 16/11 A2982 RMK A01 T01620112  RH  072%=      5-min Rain = 0
KAD1 241018Z 19023KT 16/11 A2982 RMK A01 T01620112  RH  072%=      5-min Rain = 0
KAD1 241019Z 19021G28KT 16/11 A2983 RMK A01 T01630113  RH  072%=      5-min Rain = 0
KAD1 241020Z 19020G25KT 16/11 A2983 RMK A01 T01620112  RH  072%=      5-min Rain = 0
KAD1 241021Z 19022KT 16/11 A2983 RMK A01 T01620113  RH  073%=      5-min Rain = 0
KAD1 241022Z 19022G27KT 16/11 A2982 RMK A01 T01610113  RH  073%=      5-min Rain = 0
KAD1 241023Z 19023G29KT 16/11 A2982 RMK A01 T01610113  RH  073%=      5-min Rain = 0
KAD1 241024Z 19022KT 16/11 A2982 RMK A01 T01610113  RH  073%=      5-min Rain = 0
KAD1 241025Z 19023KT 16/11 A2983 RMK A01 T01610113  RH  073%=      5-min Rain = 0
KAD1 241026Z 19022G27KT 16/11 A2983 RMK A01 T01610113  RH  073%=      5-min Rain = 0
KAD1 241027Z 19022KT 16/11 A2983 RMK A01 T01610113  RH  073%=      5-min Rain = 0
KAD1 241028Z 19022KT 16/11 A2983 RMK A01 T01610113  RH  073%=      5-min Rain = 0
KAD1 241029Z 19019KT 16/11 A2983 RMK A01 T01600113  RH  073%=      5-min Rain = 0
KAD1 241030Z 19020G25KT 16/11 A2983 RMK A01 T01590113  RH  074%=      5-min Rain = 0
KAD1 241031Z 19021KT 16/11 A2983 RMK A01 T01590113  RH  074%=      5-min Rain = 0
KAD1 241032Z 19020KT 16/11 A2983 RMK A01 T01590113  RH  074%=      5-min Rain = 0
KAD1 241033Z 19018KT 16/11 A2983 RMK A01 T01580113  RH  074%=      5-min Rain = 0
KAD1 241034Z 19019G24KT 16/11 A2983 RMK A01 T01570112  RH  075%=      5-min Rain = 0
KAD1 241035Z 19020KT 16/11 A2983 RMK A01 T01570113  RH  075%=      5-min Rain = 0
KAD1 241036Z 19020KT 16/11 A2983 RMK A01 T01570113  RH  075%=      5-min Rain = 0
KAD1 241037Z 19019KT 16/11 A2983 RMK A01 T01560113  RH  075%=      5-min Rain = 0
KAD1 241038Z 19020KT 16/11 A2983 RMK A01 T01560112  RH  075%=      5-min Rain = 0
KAD1 241039Z 19019KT 16/11 A2983 RMK A01 T01560112  RH  075%=      5-min Rain = 0
KAD1 241040Z 19016KT 16/11 A2983 RMK A01 T01560112  RH  075%=      5-min Rain = 0
KAD1 241041Z 18020KT 16/11 A2983 RMK A01 T01550113  RH  076%=      5-min Rain = 0
KAD1 241042Z 19018G26KT 15/11 A2983 RMK A01 T01540112  RH  076%=      5-min Rain = 0
KAD1 241043Z 18017KT 15/11 A2983 RMK A01 T01540112  RH  076%=      5-min Rain = 0
KAD1 241044Z 18020KT 15/11 A2983 RMK A01 T01540112  RH  076%=      5-min Rain = 0
KAD1 241045Z 19019KT 15/11 A2983 RMK A01 T01540112  RH  076%=      5-min Rain = 0
KAD1 241046Z 18019KT 15/11 A2983 RMK A01 T01540113  RH  076%=      5-min Rain = 0
KAD1 241047Z 19020KT 15/11 A2983 RMK A01 T01540112  RH  076%=      5-min Rain = 0
KAD1 241048Z 19018KT 15/11 A2983 RMK A01 T01540112  RH  076%=      5-min Rain = 0
KAD1 241049Z 19019KT 15/11 A2983 RMK A01 T01530112  RH  076%=      5-min Rain = 0
KAD1 241050Z 19018G23KT 15/11 A2983 RMK A01 T01530112  RH  076%=      5-min Rain = 0
KAD1 241051Z 18020G25KT 15/11 A2983 RMK A01 T01530112  RH  077%=      5-min Rain = 0
KAD1 241052Z 19020KT 15/11 A2983 RMK A01 T01530112  RH  077%=      5-min Rain = 0
KAD1 241053Z 19020KT 15/11 A2983 RMK A01 T01530112  RH  077%=      5-min Rain = 0
KAD1 241054Z 18020KT 15/11 A2983 RMK A01 T01530112  RH  077%=      5-min Rain = 0
KAD1 241055Z 18018KT 15/11 A2983 RMK A01 T01520112  RH  077%=      5-min Rain = 0
KAD1 241056Z 19019KT 15/11 A2983 RMK A01 T01530112  RH  077%=      5-min Rain = 0
KAD1 241057Z 18019KT 15/11 A2983 RMK A01 T01530112  RH  077%=      5-min Rain = 0
KAD1 241058Z 18018KT 15/11 A2983 RMK A01 T01530112  RH  077%=      5-min Rain = 0
KAD1 241059Z 18018KT 15/11 A2983 RMK A01 T01520112  RH  077%=      5-min Rain = 0
KAD1 241100Z 18017KT 15/11 A2983 RMK A01 T01520112  RH  077%=      5-min Rain = 0
KAD1 241101Z 18019KT 15/11 A2983 RMK A01 T01520112  RH  077%=      5-min Rain = 0
KAD1 241102Z 18018KT 15/11 A2983 RMK A01 T01520112  RH  077%=      5-min Rain = 0
KAD1 241103Z 18018KT 15/11 A2983 RMK A01 T01520112  RH  077%=      5-min Rain = 0
KAD1 241104Z 18017KT 15/11 A2983 RMK A01 T01520113  RH  077%=      5-min Rain = 0
KAD1 241105Z 18017KT 15/11 A2983 RMK A01 T01510112  RH  078%=      5-min Rain = 0
KAD1 241106Z 18016G21KT 15/11 A2983 RMK A01 T01510112  RH  078%=      5-min Rain = 0
KAD1 241107Z 18018KT 15/11 A2983 RMK A01 T01500113  RH  078%=      5-min Rain = 0
KAD1 241108Z 18017KT 15/11 A2983 RMK A01 T01500113  RH  078%=      5-min Rain = 0
KAD1 241109Z 18019KT 15/11 A2983 RMK A01 T01500113  RH  078%=      5-min Rain = 0
KAD1 241110Z 18016KT 15/11 A2984 RMK A01 T01500113  RH  078%=      5-min Rain = 0
KAD1 241111Z 18018KT 15/11 A2984 RMK A01 T01500113  RH  078%=      5-min Rain = 0
KAD1 241112Z 18017KT 15/11 A2984 RMK A01 T01500113  RH  078%=      5-min Rain = 0
KAD1 241113Z 18016KT 15/11 A2984 RMK A01 T01500113  RH  078%=      5-min Rain = 0
KAD1 241114Z 18017KT 15/11 A2984 RMK A01 T01500113  RH  078%=      5-min Rain = 0
KAD1 241115Z 18016KT 15/11 A2984 RMK A01 T01500113  RH  078%=      5-min Rain = 0
KAD1 241116Z 18018G23KT 15/11 A2984 RMK A01 T01500113  RH  079%=      5-min Rain = 0
KAD1 241117Z 18020KT 15/11 A2984 RMK A01 T01500113  RH  079%=      5-min Rain = 0
KAD1 241118Z 18018KT 15/11 A2984 RMK A01 T01500113  RH  079%=      5-min Rain = 0
KAD1 241119Z 18016G21KT 15/11 A2984 RMK A01 T01500113  RH  079%=      5-min Rain = 0
KAD1 241120Z 18017KT 15/11 A2984 RMK A01 T01500113  RH  079%=      5-min Rain = 0
KAD1 241121Z 18018KT 15/11 A2984 RMK A01 T01490113  RH  079%=      5-min Rain = 0
KAD1 241122Z 17016KT 15/11 A2984 RMK A01 T01500113  RH  079%=      5-min Rain = 0
KAD1 241123Z 17016KT 15/11 A2984 RMK A01 T01490113  RH  079%=      5-min Rain = 0
KAD1 241124Z 18017KT 15/11 A2984 RMK A01 T01480113  RH  080%=      5-min Rain = 0
KAD1 241125Z 17017KT 15/11 A2984 RMK A01 T01480114  RH  080%=      5-min Rain = 0
KAD1 241126Z 18016KT 15/11 A2984 RMK A01 T01480113  RH  080%=      5-min Rain = 0
KAD1 241127Z 18016KT 15/11 A2984 RMK A01 T01470113  RH  080%=      5-min Rain = 0
KAD1 241128Z 18015KT 15/11 A2984 RMK A01 T01470113  RH  080%=      5-min Rain = 0
KAD1 241129Z 18018KT 15/11 A2984 RMK A01 T01470113  RH  080%=      5-min Rain = 0
KAD1 241130Z 18015KT 15/11 A2984 RMK A01 T01470113  RH  080%=      5-min Rain = 0
KAD1 241131Z 18015KT 15/11 A2984 RMK A01 T01460113  RH  080%=      5-min Rain = 0
KAD1 241132Z 18017KT 15/11 A2984 RMK A01 T01460113  RH  081%=      5-min Rain = 0
KAD1 241133Z 18018KT 15/11 A2984 RMK A01 T01460113  RH  081%=      5-min Rain = 0
KAD1 241134Z 18017KT 15/11 A2984 RMK A01 T01460113  RH  081%=      5-min Rain = 0
KAD1 241135Z 18019KT 15/11 A2984 RMK A01 T01460113  RH  081%=      5-min Rain = 0
KAD1 241136Z 18017KT 15/11 A2984 RMK A01 T01460113  RH  081%=      5-min Rain = 0
KAD1 241137Z 18018KT 15/11 A2984 RMK A01 T01460113  RH  081%=      5-min Rain = 0
KAD1 241138Z 18017KT 15/11 A2984 RMK A01 T01460113  RH  081%=      5-min Rain = 0
KAD1 241139Z 18016G21KT 15/11 A2984 RMK A01 T01460113  RH  081%=      5-min Rain = 0
KAD1 241140Z 18017KT 15/11 A2984 RMK A01 T01460113  RH  081%=      5-min Rain = 0
KAD1 241141Z 18017KT 15/11 A2984 RMK A01 T01450113  RH  081%=      5-min Rain = 0
KAD1 241142Z 18020KT 15/11 A2984 RMK A01 T01450113  RH  081%=      5-min Rain = 0
KAD1 241143Z 18018G24KT 15/11 A2984 RMK A01 T01460113  RH  081%=      5-min Rain = 0
KAD1 241144Z 18018KT 15/11 A2984 RMK A01 T01460113  RH  081%=      5-min Rain = 0
KAD1 241145Z 18016KT 15/11 A2984 RMK A01 T01460113  RH  081%=      5-min Rain = 0
KAD1 241146Z 18017KT 15/11 A2984 RMK A01 T01460113  RH  081%=      5-min Rain = 0
KAD1 241147Z 18019G24KT 15/11 A2984 RMK A01 T01460113  RH  081%=      5-min Rain = 0
KAD1 241148Z 18019G25KT 15/11 A2984 RMK A01 T01460113  RH  081%=      5-min Rain = 0
KAD1 241149Z 18020KT 15/11 A2983 RMK A01 T01460113  RH  081%=      5-min Rain = 0
KAD1 241150Z 18020KT 15/11 A2983 RMK A01 T01460113  RH  081%=      5-min Rain = 0
KAD1 241151Z 19018KT 15/11 A2983 RMK A01 T01460113  RH  081%=      5-min Rain = 0
KAD1 241152Z 18017G22KT 15/11 A2984 RMK A01 T01460113  RH  081%=      5-min Rain = 0
KAD1 241153Z 18018G23KT 15/11 A2983 RMK A01 T01450113  RH  081%=      5-min Rain = 0
KAD1 241154Z 18018KT 15/11 A2983 RMK A01 T01450113  RH  081%=      5-min Rain = 0
KAD1 241155Z 18019KT 15/11 A2984 RMK A01 T01450114  RH  081%=      5-min Rain = 0
KAD1 241156Z 18019KT 15/11 A2983 RMK A01 T01450113  RH  081%=      5-min Rain = 0
KAD1 241157Z 18019KT 15/11 A2984 RMK A01 T01450113  RH  081%=      5-min Rain = 0
KAD1 241158Z 19017KT 15/11 A2984 RMK A01 T01450113  RH  081%=      5-min Rain = 0
KAD1 241159Z 18018KT 14/11 A2984 RMK A01 T01440113  RH  081%=      5-min Rain = 0
KAD1 241200Z 18019KT 14/11 A2984 RMK A01 T01440113  RH  081%=      5-min Rain = 0
KAD1 241201Z 19018KT 14/11 A2984 RMK A01 T01440113  RH  082%=      5-min Rain = 0
KAD1 241202Z 19018KT 14/11 A2984 RMK A01 T01440113  RH  082%=      5-min Rain = 0
KAD1 241203Z 19019KT 14/11 A2984 RMK A01 T01440113  RH  082%=      5-min Rain = 0
KAD1 241204Z 19018KT 14/11 A2984 RMK A01 T01440113  RH  082%=      5-min Rain = 0
KAD1 241205Z 18019KT 14/11 A2984 RMK A01 T01440113  RH  081%=      5-min Rain = 0
KAD1 241206Z 18019KT 14/11 A2984 RMK A01 T01440113  RH  081%=      5-min Rain = 0
KAD1 241207Z 19018KT 15/11 A2984 RMK A01 T01450113  RH  081%=      5-min Rain = 0
KAD1 241208Z 18017KT 15/11 A2984 RMK A01 T01450113  RH  081%=      5-min Rain = 0
KAD1 241209Z 19018KT 15/11 A2984 RMK A01 T01450113  RH  081%=      5-min Rain = 0
KAD1 241210Z 18016G22KT 14/11 A2984 RMK A01 T01440113  RH  081%=      5-min Rain = 0
KAD1 241211Z 18019G24KT 14/11 A2984 RMK A01 T01440112  RH  081%=      5-min Rain = 0
KAD1 241212Z 18019KT 15/11 A2984 RMK A01 T01450112  RH  081%=      5-min Rain = 0
KAD1 241213Z 19016KT 15/11 A2984 RMK A01 T01450113  RH  081%=      5-min Rain = 0
KAD1 241214Z 18016KT 15/11 A2984 RMK A01 T01450113  RH  081%=      5-min Rain = 0
KAD1 241215Z 19017KT 15/11 A2984 RMK A01 T01450113  RH  081%=      5-min Rain = 0
KAD1 241216Z 19017KT 15/11 A2985 RMK A01 T01450112  RH  081%=      5-min Rain = 0
KAD1 241217Z 18016KT 15/11 A2985 RMK A01 T01450112  RH  081%=      5-min Rain = 0
KAD1 241218Z 19017KT 15/11 A2985 RMK A01 T01450112  RH  081%=      5-min Rain = 0
KAD1 241219Z 19015KT 15/11 A2985 RMK A01 T01450112  RH  081%=      5-min Rain = 0
KAD1 241220Z 19018KT 15/11 A2985 RMK A01 T01450112  RH  081%=      5-min Rain = 0
KAD1 241221Z 18016KT 15/11 A2985 RMK A01 T01450112  RH  081%=      5-min Rain = 0
KAD1 241222Z 19017KT 15/11 A2985 RMK A01 T01450112  RH  081%=      5-min Rain = 0
KAD1 241223Z 19017KT 15/11 A2985 RMK A01 T01450112  RH  081%=      5-min Rain = 0
KAD1 241224Z 19018KT 15/11 A2985 RMK A01 T01450112  RH  081%=      5-min Rain = 0
KAD1 241225Z 19018KT 15/11 A2985 RMK A01 T01460113  RH  081%=      5-min Rain = 0
KAD1 241226Z 18018KT 15/11 A2985 RMK A01 T01450112  RH  080%=      5-min Rain = 0
KAD1 241227Z 19017KT 15/11 A2985 RMK A01 T01450112  RH  080%=      5-min Rain = 0
KAD1 241228Z 19016KT 15/11 A2985 RMK A01 T01460112  RH  080%=      5-min Rain = 0
KAD1 241229Z 19017KT 15/11 A2985 RMK A01 T01460113  RH  080%=      5-min Rain = 0
KAD1 241230Z 19017KT 15/11 A2985 RMK A01 T01460112  RH  080%=      5-min Rain = 0
KAD1 241231Z 19016KT 15/11 A2985 RMK A01 T01470113  RH  080%=      5-min Rain = 0
KAD1 241232Z 19016G21KT 15/11 A2985 RMK A01 T01470113  RH  080%=      5-min Rain = 0
KAD1 241233Z 19018KT 15/11 A2985 RMK A01 T01470113  RH  080%=      5-min Rain = 0
KAD1 241234Z 19017KT 15/11 A2985 RMK A01 T01480113  RH  079%=      5-min Rain = 0
KAD1 241235Z 19017KT 15/11 A2985 RMK A01 T01480113  RH  079%=      5-min Rain = 0
KAD1 241236Z 19018KT 15/11 A2985 RMK A01 T01490113  RH  079%=      5-min Rain = 0
KAD1 241237Z 19018KT 15/11 A2985 RMK A01 T01490113  RH  079%=      5-min Rain = 0
KAD1 241238Z 19018KT 15/11 A2985 RMK A01 T01490113  RH  079%=      5-min Rain = 0
KAD1 241239Z 19018KT 15/11 A2985 RMK A01 T01500113  RH  079%=      5-min Rain = 0
KAD1 241240Z 19018KT 15/11 A2985 RMK A01 T01500113  RH  079%=      5-min Rain = 0
KAD1 241241Z 19017KT 15/11 A2985 RMK A01 T01500113  RH  079%=      5-min Rain = 0
KAD1 241242Z 19018KT 15/11 A2985 RMK A01 T01500113  RH  079%=      5-min Rain = 0
KAD1 241243Z 19016KT 15/11 A2985 RMK A01 T01500113  RH  078%=      5-min Rain = 0
KAD1 241244Z 19017KT 15/11 A2985 RMK A01 T01510114  RH  078%=      5-min Rain = 0
KAD1 241245Z 19016KT 15/11 A2985 RMK A01 T01510114  RH  078%=      5-min Rain = 0
KAD1 241246Z 20017KT 15/11 A2985 RMK A01 T01510114  RH  078%=      5-min Rain = 0
KAD1 241247Z 20019KT 15/11 A2985 RMK A01 T01510114  RH  078%=      5-min Rain = 0
KAD1 241248Z 20019KT 15/11 A2985 RMK A01 T01520114  RH  078%=      5-min Rain = 0
KAD1 241249Z 20018KT 15/11 A2985 RMK A01 T01530114  RH  078%=      5-min Rain = 0
KAD1 241250Z 20020KT 15/12 A2985 RMK A01 T01530115  RH  078%=      5-min Rain = 0
KAD1 241251Z 20018KT 15/12 A2985 RMK A01 T01540115  RH  077%=      5-min Rain = 0
KAD1 241252Z 20019KT 16/12 A2985 RMK A01 T01550115  RH  077%=      5-min Rain = 0
KAD1 241253Z 20021KT 16/12 A2985 RMK A01 T01560115  RH  077%=      5-min Rain = 0
KAD1 241254Z 21019KT 16/12 A2985 RMK A01 T01560116  RH  077%=      5-min Rain = 0
KAD1 241255Z 20021KT 16/12 A2985 RMK A01 T01570116  RH  076%=      5-min Rain = 0
KAD1 241256Z 20021KT 16/12 A2985 RMK A01 T01590117  RH  076%=      5-min Rain = 0
KAD1 241257Z 20019KT 16/12 A2985 RMK A01 T01600117  RH  076%=      5-min Rain = 0
KAD1 241258Z 20018KT 16/12 A2985 RMK A01 T01600117  RH  075%=      5-min Rain = 0
KAD1 241259Z 21020KT 16/12 A2985 RMK A01 T01610117  RH  075%=      5-min Rain = 0
KAD1 241300Z 21019KT 16/12 A2985 RMK A01 T01620117  RH  075%=      5-min Rain = 0
KAD1 241301Z 21018KT 16/12 A2985 RMK A01 T01630118  RH  074%=      5-min Rain = 0
KAD1 241302Z 21016G21KT 16/12 A2985 RMK A01 T01640118  RH  074%=      5-min Rain = 0
KAD1 241303Z 20020KT 17/12 A2985 RMK A01 T01650118  RH  074%=      5-min Rain = 0
KAD1 241304Z 20019KT 17/12 A2985 RMK A01 T01650118  RH  073%=      5-min Rain = 0
KAD1 241305Z 21020KT 17/12 A2985 RMK A01 T01660118  RH  073%=      5-min Rain = 0
KAD1 241306Z 21020KT 17/12 A2985 RMK A01 T01670118  RH  073%=      5-min Rain = 0
KAD1 241307Z 21017KT 17/12 A2985 RMK A01 T01680119  RH  073%=      5-min Rain = 0
KAD1 241308Z 21019KT 17/12 A2985 RMK A01 T01690119  RH  072%=      5-min Rain = 0
KAD1 241309Z 21022KT 17/12 A2985 RMK A01 T01710119  RH  071%=      5-min Rain = 0
KAD1 241310Z 21020KT 17/12 A2985 RMK A01 T01710119  RH  071%=      5-min Rain = 0
KAD1 241311Z 21021KT 17/12 A2985 RMK A01 T01720119  RH  071%=      5-min Rain = 0
KAD1 241312Z 21019KT 17/12 A2985 RMK A01 T01730119  RH  071%=      5-min Rain = 0
KAD1 241313Z 21019G24KT 17/12 A2986 RMK A01 T01740119  RH  070%=      5-min Rain = 0
KAD1 241314Z 21020KT 18/12 A2985 RMK A01 T01750119  RH  070%=      5-min Rain = 0
KAD1 241315Z 21019KT 18/12 A2985 RMK A01 T01750119  RH  069%=      5-min Rain = 0
KAD1 241316Z 21018KT 18/12 A2985 RMK A01 T01760119  RH  069%=      5-min Rain = 0
KAD1 241317Z 22018KT 18/12 A2986 RMK A01 T01770119  RH  069%=      5-min Rain = 0
KAD1 241318Z 21017KT 18/12 A2986 RMK A01 T01770118  RH  068%=      5-min Rain = 0
KAD1 241319Z 21020KT 18/12 A2986 RMK A01 T01780118  RH  068%=      5-min Rain = 0
KAD1 241320Z 21019KT 18/12 A2985 RMK A01 T01780118  RH  068%=      5-min Rain = 0
KAD1 241321Z 21022KT 18/12 A2985 RMK A01 T01790118  RH  067%=      5-min Rain = 0
KAD1 241322Z 21020KT 18/12 A2985 RMK A01 T01790118  RH  067%=      5-min Rain = 0
KAD1 241323Z 21023KT 18/12 A2985 RMK A01 T01790117  RH  067%=      5-min Rain = 0
KAD1 241324Z 21020KT 18/12 A2986 RMK A01 T01790117  RH  067%=      5-min Rain = 0
KAD1 241325Z 22020KT 18/12 A2986 RMK A01 T01800118  RH  067%=      5-min Rain = 0
KAD1 241326Z 22019KT 18/12 A2986 RMK A01 T01800117  RH  067%=      5-min Rain = 0
KAD1 241327Z 22018KT 18/12 A2986 RMK A01 T01810118  RH  066%=      5-min Rain = 0
KAD1 241328Z 23016G23KT 18/12 A2986 RMK A01 T01820118  RH  066%=      5-min Rain = 0
KAD1 241329Z 23018KT 18/12 A2986 RMK A01 T01830117  RH  065%=      5-min Rain = 0
KAD1 241330Z 22019KT 18/12 A2986 RMK A01 T01840117  RH  065%=      5-min Rain = 0
KAD1 241331Z 22018KT 18/12 A2986 RMK A01 T01840117  RH  065%=      5-min Rain = 0
KAD1 241332Z 22019KT 18/12 A2986 RMK A01 T01840117  RH  065%=      5-min Rain = 0
KAD1 241333Z 22019KT 18/12 A2986 RMK A01 T01840117  RH  065%=      5-min Rain = 0
KAD1 241334Z 22017KT 19/12 A2986 RMK A01 T01850117  RH  064%=      5-min Rain = 0
KAD1 241335Z 23016G21KT 19/12 A2987 RMK A01 T01860118  RH  064%=      5-min Rain = 0
KAD1 241336Z 22015KT 19/12 A2986 RMK A01 T01870116  RH  063%=      5-min Rain = 0
KAD1 241337Z 23019KT 19/11 A2987 RMK A01 T01890114  RH  062%=      5-min Rain = 0
KAD1 241338Z 24015KT 19/11 A2987 RMK A01 T01900114  RH  061%=      5-min Rain = 0
KAD1 241339Z 23016KT 19/11 A2987 RMK A01 T01900114  RH  061%=      5-min Rain = 0
KAD1 241340Z 24012KT 19/11 A2987 RMK A01 T01910114  RH  061%=      5-min Rain = 0
KAD1 241341Z 24013KT 19/12 A2987 RMK A01 T01930116  RH  061%=      5-min Rain = 0
KAD1 241342Z 23013KT 19/12 A2987 RMK A01 T01940115  RH  060%=      5-min Rain = 0
KAD1 241343Z 24017KT 20/12 A2987 RMK A01 T01950115  RH  060%=      5-min Rain = 0
KAD1 241344Z 24017KT 19/11 A2987 RMK A01 T01940114  RH  060%=      5-min Rain = 0
KAD1 241345Z 24017KT 19/11 A2987 RMK A01 T01930114  RH  060%=      5-min Rain = 0
KAD1 241346Z 24016KT 19/11 A2987 RMK A01 T01920113  RH  060%=      5-min Rain = 0
KAD1 241347Z 24015KT 19/11 A2987 RMK A01 T01930112  RH  059%=      5-min Rain = 0
KAD1 241348Z 25015KT 19/11 A2987 RMK A01 T01940113  RH  060%=      5-min Rain = 0
KAD1 241349Z 25016KT 20/11 A2987 RMK A01 T01950112  RH  059%=      5-min Rain = 0
KAD1 241350Z 24017KT 20/11 A2987 RMK A01 T01960112  RH  058%=      5-min Rain = 0
KAD1 241351Z 24013KT 20/11 A2987 RMK A01 T01960113  RH  058%=      5-min Rain = 0
KAD1 241352Z 24016KT 20/11 A2987 RMK A01 T01980113  RH  058%=      5-min Rain = 0
KAD1 241353Z 25015KT 20/11 A2987 RMK A01 T01990113  RH  058%=      5-min Rain = 0
KAD1 241354Z 24015G21KT 20/11 A2987 RMK A01 T01980114  RH  058%=      5-min Rain = 0
KAD1 241355Z 24017KT 20/11 A2987 RMK A01 T01990112  RH  057%=      5-min Rain = 0
KAD1 241356Z 25017KT 20/11 A2987 RMK A01 T01990110  RH  056%=      5-min Rain = 0
KAD1 241357Z 25019KT 20/11 A2987 RMK A01 T02000108  RH  055%=      5-min Rain = 0
KAD1 241358Z 25017KT 20/11 A2987 RMK A01 T01990108  RH  056%=      5-min Rain = 0
KAD1 241359Z 25018G23KT 20/11 A2987 RMK A01 T01980108  RH  056%=      5-min Rain = 0
KAD1 241400Z 25019KT 20/11 A2987 RMK A01 T01980107  RH  056%=      5-min Rain = 0
KAD1 241401Z 25016KT 20/11 A2987 RMK A01 T01960106  RH  056%=      5-min Rain = 0
KAD1 241402Z 25016KT 20/11 A2987 RMK A01 T01960108  RH  057%=      5-min Rain = 0
KAD1 241403Z 25017KT 20/11 A2987 RMK A01 T01960108  RH  057%=      5-min Rain = 0
KAD1 241404Z 25015KT 20/11 A2987 RMK A01 T01960107  RH  056%=      5-min Rain = 0
KAD1 241405Z 25016KT 20/11 A2987 RMK A01 T01970108  RH  056%=      5-min Rain = 0
KAD1 241406Z 26015KT 20/11 A2987 RMK A01 T01980106  RH  056%=      5-min Rain = 0
KAD1 241407Z 26015KT 20/11 A2987 RMK A01 T01980107  RH  056%=      5-min Rain = 0
KAD1 241408Z 27013KT 20/11 A2987 RMK A01 T01980107  RH  056%=      5-min Rain = 0
KAD1 241409Z 27014G19KT 20/11 A2987 RMK A01 T01980106  RH  055%=      5-min Rain = 0
KAD1 241410Z 27013KT 20/11 A2987 RMK A01 T01980105  RH  055%=      5-min Rain = 0
KAD1 241411Z 26015KT 20/11 A2988 RMK A01 T01980105  RH  055%=      5-min Rain = 0
KAD1 241412Z 27013G19KT 20/11 A2988 RMK A01 T01980106  RH  055%=      5-min Rain = 0
KAD1 241413Z 27014KT 20/10 A2988 RMK A01 T01980103  RH  054%=      5-min Rain = 0
KAD1 241414Z 26014KT 20/11 A2988 RMK A01 T01980105  RH  055%=      5-min Rain = 0
KAD1 241415Z 28013KT 20/10 A2988 RMK A01 T01970101  RH  054%=      5-min Rain = 0
KAD1 241416Z 28013KT 20/10 A2988 RMK A01 T01960096  RH  052%=      5-min Rain = 0
KAD1 241417Z 28014KT 19/09 A2988 RMK A01 T01940094  RH  052%=      5-min Rain = 0
KAD1 241418Z 28010KT 19/09 A2988 RMK A01 T01920093  RH  053%=      5-min Rain = 0
KAD1 241419Z 28010KT 19/09 A2988 RMK A01 T01910091  RH  052%=      5-min Rain = 0
KAD1 241420Z 29013KT 19/09 A2988 RMK A01 T01920089  RH  051%=      5-min Rain = 0
KAD1 241421Z 29011KT 19/09 A2988 RMK A01 T01900088  RH  052%=      5-min Rain = 0
KAD1 241422Z 29011KT 19/09 A2988 RMK A01 T01900087  RH  051%=      5-min Rain = 0
KAD1 241423Z 28013KT 19/08 A2988 RMK A01 T01910083  RH  049%=      5-min Rain = 0
KAD1 241424Z 28011KT 19/08 A2988 RMK A01 T01910078  RH  048%=      5-min Rain = 0
KAD1 241425Z 28014KT 19/08 A2988 RMK A01 T01910079  RH  048%=      5-min Rain = 0
KAD1 241426Z 28014KT 19/08 A2988 RMK A01 T01900076  RH  047%=      5-min Rain = 0
KAD1 241427Z 29013KT 19/07 A2988 RMK A01 T01880074  RH  047%=      5-min Rain = 0
KAD1 241428Z 29014KT 19/07 A2989 RMK A01 T01870071  RH  047%=      5-min Rain = 0
KAD1 241429Z 29013KT 19/07 A2989 RMK A01 T01870067  RH  046%=      5-min Rain = 0
KAD1 241430Z 28013G18KT 19/06 A2989 RMK A01 T01870063  RH  044%=      5-min Rain = 0
KAD1 241431Z 28016KT 19/06 A2989 RMK A01 T01890057  RH  042%=      5-min Rain = 0
KAD1 241432Z 28014KT 19/06 A2989 RMK A01 T01880056  RH  042%=      5-min Rain = 0
KAD1 241433Z 28013KT 19/06 A2989 RMK A01 T01860061  RH  044%=      5-min Rain = 0
KAD1 241434Z 28014KT 19/06 A2989 RMK A01 T01860062  RH  044%=      5-min Rain = 0
KAD1 241435Z 28013KT 19/06 A2989 RMK A01 T01860063  RH  044%=      5-min Rain = 0
KAD1 241436Z 27013KT 19/06 A2989 RMK A01 T01860062  RH  044%=      5-min Rain = 0
KAD1 241437Z 27012KT 19/06 A2989 RMK A01 T01870060  RH  043%=      5-min Rain = 0
KAD1 241438Z 27012KT 19/06 A2988 RMK A01 T01880061  RH  043%=      5-min Rain = 0
KAD1 241439Z 28013KT 19/06 A2988 RMK A01 T01900060  RH  043%=      5-min Rain = 0
KAD1 241440Z 28013KT 19/06 A2988 RMK A01 T01910060  RH  042%=      5-min Rain = 0
KAD1 241441Z 28011KT 19/06 A2988 RMK A01 T01910059  RH  042%=      5-min Rain = 0
KAD1 241442Z 28014KT 19/06 A2989 RMK A01 T01930062  RH  042%=      5-min Rain = 0
KAD1 241443Z 29014KT 19/06 A2989 RMK A01 T01940062  RH  042%=      5-min Rain = 0
KAD1 241444Z 29014KT 19/06 A2989 RMK A01 T01940064  RH  043%=      5-min Rain = 0
KAD1 241445Z 28012KT 19/06 A2989 RMK A01 T01930064  RH  043%=      5-min Rain = 0
KAD1 241446Z 29012KT 19/07 A2989 RMK A01 T01920067  RH  044%=      5-min Rain = 0
KAD1 241447Z 30012KT 19/07 A2989 RMK A01 T01940070  RH  045%=      5-min Rain = 0
KAD1 241448Z 29011KT 19/07 A2989 RMK A01 T01940071  RH  045%=      5-min Rain = 0
KAD1 241449Z 29012KT 19/07 A2989 RMK A01 T01940072  RH  045%=      5-min Rain = 0
KAD1 241450Z 30014KT 20/08 A2989 RMK A01 T01960075  RH  045%=      5-min Rain = 0
KAD1 241451Z 30013KT 20/07 A2989 RMK A01 T01950073  RH  045%=      5-min Rain = 0
KAD1 241452Z 30011KT 19/07 A2989 RMK A01 T01920074  RH  046%=      5-min Rain = 0
KAD1 241453Z 31008KT 19/08 A2989 RMK A01 T01930077  RH  047%=      5-min Rain = 0
KAD1 241454Z 30009KT 20/08 A2988 RMK A01 T01960081  RH  047%=      5-min Rain = 0
KAD1 241455Z 29011KT 20/08 A2989 RMK A01 T01980080  RH  046%=      5-min Rain = 0
KAD1 241456Z 30010KT 20/08 A2989 RMK A01 T01970080  RH  047%=      5-min Rain = 0
KAD1 241457Z 30010KT 20/08 A2989 RMK A01 T01960081  RH  047%=      5-min Rain = 0
KAD1 241458Z 31012KT 20/08 A2988 RMK A01 T01970082  RH  047%=      5-min Rain = 0
KAD1 241459Z 31010KT 20/08 A2988 RMK A01 T01970083  RH  048%=      5-min Rain = 0
KAD1 241500Z 31011KT 20/08 A2988 RMK A01 T01980084  RH  048%=      5-min Rain = 0
KAD1 241501Z 31011KT 20/08 A2988 RMK A01 T01960084  RH  048%=      5-min Rain = 0
KAD1 241502Z 32009KT 20/08 A2988 RMK A01 T01950084  RH  049%=      5-min Rain = 0
KAD1 241503Z 30010KT 20/09 A2988 RMK A01 T01950086  RH  049%=      5-min Rain = 0
KAD1 241504Z 31011KT 20/09 A2988 RMK A01 T01970088  RH  049%=      5-min Rain = 0
KAD1 241505Z 31011KT 20/09 A2988 RMK A01 T01980089  RH  049%=      5-min Rain = 0
KAD1 241506Z 31012KT 20/09 A2989 RMK A01 T01980089  RH  049%=      5-min Rain = 0
KAD1 241507Z 30012KT 20/09 A2989 RMK A01 T01960090  RH  050%=      5-min Rain = 0
KAD1 241508Z 31012KT 19/09 A2989 RMK A01 T01940090  RH  051%=      5-min Rain = 0
KAD1 241509Z 31013KT 19/09 A2989 RMK A01 T01930092  RH  052%=      5-min Rain = 0
KAD1 241510Z 30012KT 19/09 A2989 RMK A01 T01920093  RH  053%=      5-min Rain = 0
KAD1 241511Z 30010KT 19/09 A2989 RMK A01 T01920094  RH  053%=      5-min Rain = 0
KAD1 241512Z 31009KT 19/10 A2989 RMK A01 T01930096  RH  053%=      5-min Rain = 0
KAD1 241513Z 32011KT 20/10 A2989 RMK A01 T01950097  RH  053%=      5-min Rain = 0
KAD1 241514Z 32012KT 20/10 A2989 RMK A01 T01950097  RH  053%=      5-min Rain = 0
KAD1 241515Z 32011KT 19/10 A2989 RMK A01 T01930097  RH  054%=      5-min Rain = 0
KAD1 241516Z 32012KT 19/10 A2989 RMK A01 T01920098  RH  054%=      5-min Rain = 0
KAD1 241517Z 30011KT 19/10 A2989 RMK A01 T01910098  RH  055%=      5-min Rain = 0
KAD1 241518Z 31009KT 19/10 A2989 RMK A01 T01900098  RH  055%=      5-min Rain = 0
KAD1 241519Z 32012KT 19/10 A2989 RMK A01 T01900099  RH  056%=      5-min Rain = 0
KAD1 241520Z 31011KT 19/10 A2989 RMK A01 T01900099  RH  055%=      5-min Rain = 0
KAD1 241521Z 31009KT 19/10 A2989 RMK A01 T01900101  RH  056%=      5-min Rain = 0
KAD1 241522Z 30011KT 19/10 A2989 RMK A01 T01910102  RH  056%=      5-min Rain = 0
KAD1 241523Z 30012KT 19/10 A2989 RMK A01 T01920102  RH  056%=      5-min Rain = 0
KAD1 241524Z 31011KT 19/10 A2989 RMK A01 T01930103  RH  056%=      5-min Rain = 0
KAD1 241525Z 30011KT 20/10 A2989 RMK A01 T01950104  RH  056%=      5-min Rain = 0
KAD1 241526Z 31009KT 19/10 A2989 RMK A01 T01940104  RH  056%=      5-min Rain = 0
KAD1 241527Z 32011KT 19/10 A2989 RMK A01 T01940103  RH  056%=      5-min Rain = 0
KAD1 241528Z 32010KT 20/10 A2989 RMK A01 T01960103  RH  055%=      5-min Rain = 0
KAD1 241529Z 31011KT 20/10 A2989 RMK A01 T01960103  RH  055%=      5-min Rain = 0
KAD1 241530Z 31010KT 20/10 A2989 RMK A01 T01970104  RH  055%=      5-min Rain = 0
KAD1 241531Z 31010KT 20/10 A2989 RMK A01 T01960104  RH  055%=      5-min Rain = 0
KAD1 241532Z 32010KT 20/10 A2989 RMK A01 T01960103  RH  055%=      5-min Rain = 0
KAD1 241533Z 32011KT 20/10 A2989 RMK A01 T01950104  RH  055%=      5-min Rain = 0
KAD1 241534Z 32010KT 20/10 A2989 RMK A01 T01960104  RH  055%=      5-min Rain = 0
KAD1 241535Z 32010KT 20/10 A2988 RMK A01 T01970104  RH  055%=      5-min Rain = 0
KAD1 241536Z 34010KT 20/11 A2988 RMK A01 T01970106  RH  056%=      5-min Rain = 0
KAD1 241537Z 33011KT 20/11 A2988 RMK A01 T01990106  RH  055%=      5-min Rain = 0
KAD1 241538Z 31010KT 20/11 A2988 RMK A01 T02000106  RH  054%=      5-min Rain = 0
KAD1 241539Z 33009KT 20/11 A2988 RMK A01 T02010106  RH  054%=      5-min Rain = 0
KAD1 241540Z 34009KT 20/11 A2988 RMK A01 T02030107  RH  054%=      5-min Rain = 0
KAD1 241541Z 33010KT 21/11 A2988 RMK A01 T02050108  RH  054%=      5-min Rain = 0
KAD1 241542Z 32012KT 21/11 A2988 RMK A01 T02060107  RH  053%=      5-min Rain = 0
KAD1 241543Z 32011KT 21/11 A2988 RMK A01 T02050107  RH  053%=      5-min Rain = 0
KAD1 241544Z 33011KT 20/11 A2988 RMK A01 T02040107  RH  054%=      5-min Rain = 0
KAD1 241545Z 34010KT 20/11 A2988 RMK A01 T02030107  RH  054%=      5-min Rain = 0
KAD1 241546Z 33012KT 21/11 A2988 RMK A01 T02050109  RH  054%=      5-min Rain = 0
KAD1 241547Z 33010KT 21/11 A2988 RMK A01 T02060109  RH  053%=      5-min Rain = 0
KAD1 241548Z 33012KT 21/11 A2988 RMK A01 T02070110  RH  054%=      5-min Rain = 0
KAD1 241549Z 33014KT 21/11 A2988 RMK A01 T02060109  RH  053%=      5-min Rain = 0
KAD1 241550Z 34014G19KT 21/11 A2988 RMK A01 T02050108  RH  054%=      5-min Rain = 0
KAD1 241551Z 33014KT 20/11 A2988 RMK A01 T02040108  RH  054%=      5-min Rain = 0
KAD1 241552Z 33012KT 20/10 A2989 RMK A01 T02040104  RH  053%=      5-min Rain = 0
KAD1 241553Z 33011KT 20/11 A2989 RMK A01 T02040107  RH  054%=      5-min Rain = 0
KAD1 241554Z 35014KT 21/11 A2989 RMK A01 T02050107  RH  053%=      5-min Rain = 0
KAD1 241555Z 35013KT 20/10 A2989 RMK A01 T02040104  RH  053%=      5-min Rain = 0
KAD1 241556Z 34010KT 20/11 A2989 RMK A01 T02020105  RH  053%=      5-min Rain = 0
KAD1 241557Z 33012KT 20/11 A2989 RMK A01 T02030105  RH  053%=      5-min Rain = 0
KAD1 241558Z 32013KT 21/11 A2989 RMK A01 T02070105  RH  052%=      5-min Rain = 0
KAD1 241559Z 32012KT 21/10 A2989 RMK A01 T02080103  RH  051%=      5-min Rain = 0
KAD1 241600Z 34012KT 21/10 A2989 RMK A01 T02060103  RH  051%=      5-min Rain = 0
KAD1 241601Z 33015KT 21/10 A2989 RMK A01 T02060102  RH  051%=      5-min Rain = 0
KAD1 241602Z 33016KT 21/10 A2989 RMK A01 T02060101  RH  051%=      5-min Rain = 0
KAD1 241603Z 34014KT 21/10 A2989 RMK A01 T02050100  RH  051%=      5-min Rain = 0
KAD1 241604Z 33015KT 21/10 A2989 RMK A01 T02050098  RH  050%=      5-min Rain = 0
KAD1 241605Z 33012KT 20/10 A2989 RMK A01 T02040097  RH  050%=      5-min Rain = 0
KAD1 241606Z 32014KT 20/10 A2988 RMK A01 T02040098  RH  051%=      5-min Rain = 0
KAD1 241607Z 33012KT 20/10 A2988 RMK A01 T02040098  RH  051%=      5-min Rain = 0
KAD1 241608Z 33010KT 21/10 A2988 RMK A01 T02050099  RH  050%=      5-min Rain = 0
KAD1 241609Z 34013KT 21/10 A2988 RMK A01 T02070099  RH  050%=      5-min Rain = 0
KAD1 241610Z 35012KT 21/10 A2988 RMK A01 T02070098  RH  050%=      5-min Rain = 0
KAD1 241611Z 34012KT 21/10 A2988 RMK A01 T02070098  RH  050%=      5-min Rain = 0
KAD1 241612Z 34010KT 21/10 A2989 RMK A01 T02060097  RH  050%=      5-min Rain = 0
KAD1 241613Z 34013KT 21/10 A2989 RMK A01 T02070098  RH  050%=      5-min Rain = 0
KAD1 241614Z 33014KT 21/10 A2989 RMK A01 T02080097  RH  049%=      5-min Rain = 0
KAD1 241615Z 34012KT 21/10 A2989 RMK A01 T02080096  RH  049%=      5-min Rain = 0
KAD1 241616Z 34016KT 21/10 A2989 RMK A01 T02090096  RH  048%=      5-min Rain = 0
KAD1 241617Z 33013KT 21/10 A2989 RMK A01 T02100096  RH  048%=      5-min Rain = 0
KAD1 241618Z 32011KT 21/10 A2989 RMK A01 T02090096  RH  048%=      5-min Rain = 0
KAD1 241619Z 35013KT 21/10 A2989 RMK A01 T02090097  RH  048%=      5-min Rain = 0
KAD1 241620Z 35013KT 21/10 A2989 RMK A01 T02100096  RH  048%=      5-min Rain = 0
KAD1 241621Z 34010KT 21/10 A2989 RMK A01 T02120096  RH  047%=      5-min Rain = 0
KAD1 241622Z 33009KT 21/10 A2989 RMK A01 T02140096  RH  047%=      5-min Rain = 0
KAD1 241623Z 35009KT 21/09 A2989 RMK A01 T02140094  RH  046%=      5-min Rain = 0
KAD1 241624Z 36011KT 21/10 A2989 RMK A01 T02140095  RH  046%=      5-min Rain = 0
KAD1 241625Z 34006KT 21/09 A2989 RMK A01 T02130094  RH  046%=      5-min Rain = 0
KAD1 241626Z 35012KT 21/10 A2989 RMK A01 T02140096  RH  047%=      5-min Rain = 0
KAD1 241627Z 00012KT 21/09 A2989 RMK A01 T02130091  RH  046%=      5-min Rain = 0
KAD1 241628Z 01011KT 21/09 A2989 RMK A01 T02110092  RH  046%=      5-min Rain = 0
KAD1 241629Z 00012KT 21/09 A2989 RMK A01 T02120091  RH  046%=      5-min Rain = 0
KAD1 241630Z 35010KT 21/09 A299 RMK A01 T02100090  RH  046%=      5-min Rain = 0
KAD1 241631Z 35008KT 21/09 A299 RMK A01 T02090089  RH  046%=      5-min Rain = 0
KAD1 241632Z 02006KT 21/09 A299 RMK A01 T02080090  RH  047%=      5-min Rain = 0
KAD1 241633Z 01009KT 21/09 A299 RMK A01 T02100094  RH  048%=      5-min Rain = 0
KAD1 241634Z 02009KT 21/09 A299 RMK A01 T02130092  RH  046%=      5-min Rain = 0
KAD1 241635Z 01009KT 22/09 A299 RMK A01 T02150093  RH  046%=      5-min Rain = 0
KAD1 241636Z 02007KT 22/09 A299 RMK A01 T02180093  RH  045%=      5-min Rain = 0
KAD1 241637Z 35009KT 22/09 A299 RMK A01 T02210093  RH  044%=      5-min Rain = 0
KAD1 241638Z 35010KT 22/09 A299 RMK A01 T02200088  RH  043%=      5-min Rain = 0
KAD1 241639Z 35009KT 22/09 A299 RMK A01 T02160088  RH  044%=      5-min Rain = 0
KAD1 241640Z 00009KT 21/09 A299 RMK A01 T02140088  RH  044%=      5-min Rain = 0
KAD1 241641Z 01008G13KT 22/09 A299 RMK A01 T02150089  RH  045%=      5-min Rain = 0
KAD1 241642Z 36012KT 22/09 A299 RMK A01 T02160092  RH  045%=      5-min Rain = 0
KAD1 241643Z 00009KT 22/09 A299 RMK A01 T02180090  RH  044%=      5-min Rain = 0
KAD1 241644Z 35010KT 22/09 A299 RMK A01 T02160090  RH  044%=      5-min Rain = 0
KAD1 241645Z 34009KT 22/09 A299 RMK A01 T02150088  RH  044%=      5-min Rain = 0
KAD1 241646Z 34008KT 21/09 A299 RMK A01 T02140089  RH  045%=      5-min Rain = 0
KAD1 241647Z 35009KT 22/09 A299 RMK A01 T02180092  RH  045%=      5-min Rain = 0
KAD1 241648Z 33011KT 22/09 A299 RMK A01 T02240091  RH  043%=      5-min Rain = 0
KAD1 241649Z 34008KT 22/09 A299 RMK A01 T02240087  RH  042%=      5-min Rain = 0
KAD1 241650Z 36009KT 22/09 A299 RMK A01 T02220088  RH  042%=      5-min Rain = 0
KAD1 241651Z 01010G15KT 22/09 A299 RMK A01 T02240091  RH  043%=      5-min Rain = 0
KAD1 241652Z 34011KT 23/09 A299 RMK A01 T02280091  RH  042%=      5-min Rain = 0
KAD1 241653Z 00011KT 23/09 A299 RMK A01 T02260087  RH  041%=      5-min Rain = 0
KAD1 241654Z 35008KT 22/09 A299 RMK A01 T02210085  RH  042%=      5-min Rain = 0
KAD1 241655Z 35005KT 22/09 A299 RMK A01 T02210087  RH  042%=      5-min Rain = 0
KAD1 241656Z 00009KT 22/09 A299 RMK A01 T02220089  RH  042%=      5-min Rain = 0
KAD1 241657Z 03009KT 22/09 A299 RMK A01 T02230089  RH  042%=      5-min Rain = 0
KAD1 241658Z 03008KT 22/09 A299 RMK A01 T02240091  RH  043%=      5-min Rain = 0
KAD1 241659Z 01006G11KT 23/09 A299 RMK A01 T02250088  RH  041%=      5-min Rain = 0
KAD1 241700Z 03006KT 22/09 A299 RMK A01 T02210089  RH  043%=      5-min Rain = 0
KAD1 241701Z 00008KT 22/09 A299 RMK A01 T02230091  RH  043%=      5-min Rain = 0
KAD1 241702Z 36007KT 23/09 A299 RMK A01 T02270089  RH  041%=      5-min Rain = 0
KAD1 241703Z 35010KT 23/09 A299 RMK A01 T02260088  RH  041%=      5-min Rain = 0
KAD1 241704Z 35010KT 23/09 A299 RMK A01 T02270085  RH  040%=      5-min Rain = 0
KAD1 241705Z 36010KT 23/09 A299 RMK A01 T02270087  RH  041%=      5-min Rain = 0
KAD1 241706Z 34010KT 23/09 A299 RMK A01 T02290085  RH  040%=      5-min Rain = 0
KAD1 241707Z 34007KT 23/09 A299 RMK A01 T02280085  RH  040%=      5-min Rain = 0
KAD1 241708Z 34006KT 23/09 A299 RMK A01 T02260085  RH  041%=      5-min Rain = 0
KAD1 241709Z 33005KT 23/09 A299 RMK A01 T02250086  RH  041%=      5-min Rain = 0
KAD1 241710Z 34007G14KT 22/09 A299 RMK A01 T02240088  RH  042%=      5-min Rain = 0
KAD1 241711Z 33008KT 23/09 A299 RMK A01 T02280088  RH  041%=      5-min Rain = 0
KAD1 241712Z 34013KT 23/09 A299 RMK A01 T02330089  RH  040%=      5-min Rain = 0
KAD1 241713Z 35013KT 23/09 A299 RMK A01 T02300085  RH  040%=      5-min Rain = 0
KAD1 241714Z 36010KT 23/08 A299 RMK A01 T02250081  RH  040%=      5-min Rain = 0
KAD1 241715Z 00006KT 22/08 A299 RMK A01 T02190080  RH  041%=      5-min Rain = 0
KAD1 241716Z 01008KT 22/09 A299 RMK A01 T02220086  RH  042%=      5-min Rain = 0
KAD1 241717Z 02009KT 23/08 A299 RMK A01 T02250084  RH  040%=      5-min Rain = 0
KAD1 241718Z 02010KT 23/09 A2989 RMK A01 T02270086  RH  040%=      5-min Rain = 0
KAD1 241719Z 01010G15KT 23/09 A2989 RMK A01 T02280085  RH  040%=      5-min Rain = 0
KAD1 241720Z 00012KT 23/09 A299 RMK A01 T02290085  RH  040%=      5-min Rain = 0
KAD1 241721Z 00009KT 23/09 A299 RMK A01 T02280085  RH  040%=      5-min Rain = 0
KAD1 241722Z 35008KT 23/08 A299 RMK A01 T02260084  RH  040%=      5-min Rain = 0
KAD1 241723Z 36006KT 23/08 A2989 RMK A01 T02260084  RH  040%=      5-min Rain = 0
KAD1 241724Z 00005KT 23/08 A2989 RMK A01 T02260084  RH  040%=      5-min Rain = 0
KAD1 241725Z 01008KT 23/08 A2989 RMK A01 T02270083  RH  040%=      5-min Rain = 0
KAD1 241726Z 02009KT 23/08 A2989 RMK A01 T02270082  RH  039%=      5-min Rain = 0
KAD1 241727Z 02009KT 23/08 A2989 RMK A01 T02290084  RH  039%=      5-min Rain = 0
KAD1 241728Z 36012KT 23/08 A2989 RMK A01 T02320083  RH  038%=      5-min Rain = 0
KAD1 241729Z 00010KT 23/08 A2989 RMK A01 T02340080  RH  037%=      5-min Rain = 0
KAD1 241730Z 36007KT 23/08 A2989 RMK A01 T02310079  RH  038%=      5-min Rain = 0
KAD1 241731Z 35009KT 23/08 A2989 RMK A01 T02320080  RH  038%=      5-min Rain = 0
KAD1 241732Z 34006KT 23/08 A2989 RMK A01 T02320075  RH  037%=      5-min Rain = 0
KAD1 241733Z 33005KT 23/08 A2989 RMK A01 T02300075  RH  037%=      5-min Rain = 0
KAD1 241734Z 36009KT 23/08 A2989 RMK A01 T02310076  RH  037%=      5-min Rain = 0
KAD1 241735Z 35009KT 23/08 A2989 RMK A01 T02310075  RH  037%=      5-min Rain = 0
KAD1 241736Z 36006KT 23/08 A2989 RMK A01 T02290075  RH  037%=      5-min Rain = 0
KAD1 241737Z 35005KT 23/07 A2989 RMK A01 T02290073  RH  037%=      5-min Rain = 0
KAD1 241738Z 35004KT 23/08 A2989 RMK A01 T02290075  RH  037%=      5-min Rain = 0
KAD1 241739Z 31005KT 23/08 A2989 RMK A01 T02320078  RH  037%=      5-min Rain = 0
KAD1 241740Z 33005KT 23/08 A2989 RMK A01 T02340077  RH  037%=      5-min Rain = 0
KAD1 241741Z 34005KT 23/08 A2989 RMK A01 T02340078  RH  037%=      5-min Rain = 0
KAD1 241742Z 35007KT 24/08 A2989 RMK A01 T02360080  RH  037%=      5-min Rain = 0
KAD1 241743Z 34010KT 24/08 A2989 RMK A01 T02410079  RH  035%=      5-min Rain = 0
KAD1 241744Z 35007KT 24/07 A2989 RMK A01 T02380073  RH  035%=      5-min Rain = 0
KAD1 241745Z 35008KT 23/08 A2989 RMK A01 T02340077  RH  036%=      5-min Rain = 0
KAD1 241746Z 01007KT 24/08 A2989 RMK A01 T02360077  RH  036%=      5-min Rain = 0
KAD1 241747Z 35005KT 24/08 A2989 RMK A01 T02370075  RH  036%=      5-min Rain = 0
KAD1 241748Z 36005KT 24/08 A2989 RMK A01 T02350075  RH  036%=      5-min Rain = 0
KAD1 241749Z 01009KT 24/08 A2989 RMK A01 T02350077  RH  036%=      5-min Rain = 0
KAD1 241750Z 01011KT 24/08 A2989 RMK A01 T02370078  RH  036%=      5-min Rain = 0
KAD1 241751Z 01009KT 24/08 A2989 RMK A01 T02380077  RH  036%=      5-min Rain = 0
KAD1 241752Z 00006KT 24/08 A2989 RMK A01 T02360077  RH  036%=      5-min Rain = 0
KAD1 241753Z 04007KT 24/08 A2989 RMK A01 T02360079  RH  037%=      5-min Rain = 0
KAD1 241754Z 35007KT 24/08 A2989 RMK A01 T02370078  RH  036%=      5-min Rain = 0
KAD1 241755Z 01003KT 24/08 A2989 RMK A01 T02380076  RH  036%=      5-min Rain = 0
KAD1 241756Z 04006KT 24/08 A2989 RMK A01 T02390079  RH  036%=      5-min Rain = 0
KAD1 241757Z 03008KT 24/08 A2989 RMK A01 T02390076  RH  035%=      5-min Rain = 0
KAD1 241758Z 03006KT 24/08 A2989 RMK A01 T02390078  RH  036%=      5-min Rain = 0
KAD1 241759Z 02003KT 24/08 A2989 RMK A01 T02410078  RH  035%=      5-min Rain = 0
KAD1 241800Z 35006KT 24/07 A2989 RMK A01 T02440072  RH  033%=      5-min Rain = 0
KAD1 241801Z 33003KT 24/07 A2989 RMK A01 T02440065  RH  032%=      5-min Rain = 0
KAD1 241802Z 35004KT 24/07 A2989 RMK A01 T02430067  RH  032%=      5-min Rain = 0
KAD1 241803Z 00003KT 24/07 A2989 RMK A01 T02440069  RH  032%=      5-min Rain = 0
KAD1 241804Z 02004KT 25/07 A2989 RMK A01 T02460068  RH  032%=      5-min Rain = 0
KAD1 241805Z 01007KT 25/07 A2989 RMK A01 T02460067  RH  032%=      5-min Rain = 0
KAD1 241806Z 36007KT 25/07 A2989 RMK A01 T02450066  RH  032%=      5-min Rain = 0
KAD1 241807Z 33006KT 25/07 A2989 RMK A01 T02470065  RH  031%=      5-min Rain = 0
KAD1 241808Z 32006KT 25/06 A2989 RMK A01 T02510061  RH  030%=      5-min Rain = 0
KAD1 241809Z 33003KT 25/06 A2989 RMK A01 T02500060  RH  029%=      5-min Rain = 0
KAD1 241810Z 29003KT 25/06 A2989 RMK A01 T02490063  RH  030%=      5-min Rain = 0
KAD1 241811Z 25003KT 25/06 A2989 RMK A01 T02490062  RH  030%=      5-min Rain = 0
KAD1 241812Z 35002KT 25/06 A2989 RMK A01 T02490064  RH  031%=      5-min Rain = 0
KAD1 241813Z 04003KT 25/08 A2989 RMK A01 T02510076  RH  033%=      5-min Rain = 0
KAD1 241814Z 03003KT 25/07 A2989 RMK A01 T02540073  RH  032%=      5-min Rain = 0
KAD1 241815Z 31005KT 25/07 A2989 RMK A01 T02530067  RH  030%=      5-min Rain = 0
KAD1 241816Z 30007KT 25/07 A2989 RMK A01 T02530066  RH  030%=      5-min Rain = 0
KAD1 241817Z 31007KT 25/06 A2989 RMK A01 T02530061  RH  029%=      5-min Rain = 0
KAD1 241818Z 29006KT 25/06 A2989 RMK A01 T02500060  RH  029%=      5-min Rain = 0
KAD1 241819Z 28007KT 25/06 A2989 RMK A01 T02490058  RH  029%=      5-min Rain = 0
KAD1 241820Z 29004KT 25/06 A2989 RMK A01 T02480059  RH  030%=      5-min Rain = 0
KAD1 241821Z 26006KT 25/06 A2989 RMK A01 T02480060  RH  030%=      5-min Rain = 0
KAD1 241822Z 27004KT 25/06 A2989 RMK A01 T02490058  RH  029%=      5-min Rain = 0
KAD1 241823Z 25004KT 25/06 A2988 RMK A01 T02480058  RH  029%=      5-min Rain = 0
KAD1 241824Z 23004KT 25/06 A2988 RMK A01 T02490057  RH  029%=      5-min Rain = 0
KAD1 241825Z 24004KT 25/06 A2988 RMK A01 T02490059  RH  030%=      5-min Rain = 0
KAD1 241826Z 21004KT 25/06 A2988 RMK A01 T02490059  RH  030%=      5-min Rain = 0
KAD1 241827Z 22004KT 25/06 A2988 RMK A01 T02500061  RH  030%=      5-min Rain = 0
KAD1 241828Z 22003KT 25/06 A2988 RMK A01 T02520063  RH  030%=      5-min Rain = 0
KAD1 241829Z 26002KT 26/07 A2988 RMK A01 T02560065  RH  029%=      5-min Rain = 0
KAD1 241830Z 00003KT 26/06 A2988 RMK A01 T02580063  RH  029%=      5-min Rain = 0
KAD1 241831Z 02004KT 26/06 A2988 RMK A01 T02560060  RH  029%=      5-min Rain = 0
KAD1 241832Z 00005KT 26/06 A2988 RMK A01 T02550059  RH  028%=      5-min Rain = 0
KAD1 241833Z 36006KT 26/06 A2988 RMK A01 T02580059  RH  028%=      5-min Rain = 0
KAD1 241834Z 35007KT 26/06 A2988 RMK A01 T02580061  RH  028%=      5-min Rain = 0
KAD1 241835Z 32008KT 26/06 A2988 RMK A01 T02580061  RH  028%=      5-min Rain = 0
KAD1 241836Z 30008KT 26/06 A2988 RMK A01 T02570061  RH  029%=      5-min Rain = 0
KAD1 241837Z 29008KT 26/06 A2988 RMK A01 T02580059  RH  028%=      5-min Rain = 0
KAD1 241838Z 30007KT 26/06 A2988 RMK A01 T02570058  RH  028%=      5-min Rain = 0
KAD1 241839Z 29006KT 25/06 A2988 RMK A01 T02540057  RH  028%=      5-min Rain = 0
KAD1 241840Z 31009KT 25/06 A2988 RMK A01 T02540056  RH  028%=      5-min Rain = 0
KAD1 241841Z 30008KT 26/05 A2988 RMK A01 T02550054  RH  027%=      5-min Rain = 0
KAD1 241842Z 30005KT 26/05 A2987 RMK A01 T02550054  RH  027%=      5-min Rain = 0
KAD1 241843Z 30007KT 26/06 A2987 RMK A01 T02560060  RH  028%=      5-min Rain = 0
KAD1 241844Z 28007KT 26/06 A2987 RMK A01 T02580058  RH  028%=      5-min Rain = 0
KAD1 241845Z 29004KT 26/06 A2987 RMK A01 T02580059  RH  028%=      5-min Rain = 0
KAD1 241846Z 28003KT 26/06 A2987 RMK A01 T02580058  RH  028%=      5-min Rain = 0
KAD1 241847Z 25003KT 26/06 A2987 RMK A01 T02570060  RH  028%=      5-min Rain = 0
KAD1 241848Z 25002KT 26/06 A2987 RMK A01 T02580057  RH  027%=      5-min Rain = 0
KAD1 241849Z 07001KT 26/05 A2987 RMK A01 T02570054  RH  027%=      5-min Rain = 0
KAD1 241850Z 25000KT 26/06 A2987 RMK A01 T02570057  RH  028%=      5-min Rain = 0
KAD1 241851Z 27002KT 26/06 A2987 RMK A01 T02600058  RH  027%=      5-min Rain = 0
KAD1 241852Z 25005KT 26/06 A2987 RMK A01 T02620058  RH  027%=      5-min Rain = 0
KAD1 241853Z 24004KT 26/06 A2987 RMK A01 T02610055  RH  027%=      5-min Rain = 0
KAD1 241854Z 23002KT 26/05 A2987 RMK A01 T02580054  RH  027%=      5-min Rain = 0
KAD1 241855Z 29001KT 26/06 A2987 RMK A01 T02580057  RH  028%=      5-min Rain = 0
KAD1 241856Z 31003KT 26/06 A2987 RMK A01 T02600057  RH  027%=      5-min Rain = 0
KAD1 241857Z 30004KT 26/06 A2987 RMK A01 T02620055  RH  027%=      5-min Rain = 0
KAD1 241858Z 29004KT 26/05 A2987 RMK A01 T02600054  RH  027%=      5-min Rain = 0
KAD1 241859Z 30008KT 26/06 A2987 RMK A01 T02590056  RH  027%=      5-min Rain = 0
KAD1 241900Z 30004KT 26/06 A2987 RMK A01 T02580055  RH  027%=      5-min Rain = 0
KAD1 241901Z 33006KT 26/06 A2987 RMK A01 T02600058  RH  027%=      5-min Rain = 0
KAD1 241902Z 32004KT 26/06 A2987 RMK A01 T02620055  RH  027%=      5-min Rain = 0
KAD1 241903Z 32001KT 26/05 A2987 RMK A01 T02630051  RH  026%=      5-min Rain = 0
KAD1 241904Z 19001KT 26/05 A2987 RMK A01 T02630051  RH  026%=      5-min Rain = 0
KAD1 241905Z 23004KT 26/05 A2987 RMK A01 T02630048  RH  025%=      5-min Rain = 0
KAD1 241906Z 24006KT 26/04 A2987 RMK A01 T02640038  RH  023%=      5-min Rain = 0
KAD1 241907Z 21003KT 27/03 A2987 RMK A01 T02650034  RH  023%=      5-min Rain = 0
KAD1 241908Z 15001KT 26/03 A2987 RMK A01 T02640031  RH  022%=      5-min Rain = 0
KAD1 241909Z 14001KT 26/03 A2987 RMK A01 T02630034  RH  023%=      5-min Rain = 0
KAD1 241910Z 22004KT 27/04 A2987 RMK A01 T02650038  RH  023%=      5-min Rain = 0
KAD1 241911Z 30010G16KT 27/05 A2986 RMK A01 T02690050  RH  025%=      5-min Rain = 0
KAD1 241912Z 35005KT 27/04 A2987 RMK A01 T02700039  RH  023%=      5-min Rain = 0
KAD1 241913Z 31004KT 27/05 A2987 RMK A01 T02700047  RH  024%=      5-min Rain = 0
KAD1 241914Z 29005KT 27/05 A2987 RMK A01 T02720052  RH  024%=      5-min Rain = 0
KAD1 241915Z 28004KT 27/05 A2987 RMK A01 T02730053  RH  025%=      5-min Rain = 0
KAD1 241916Z 31004G10KT 27/05 A2986 RMK A01 T02730052  RH  024%=      5-min Rain = 0
KAD1 241917Z 30010KT 27/05 A2986 RMK A01 T02730051  RH  024%=      5-min Rain = 0
KAD1 241918Z 29006KT 27/05 A2987 RMK A01 T02710048  RH  024%=      5-min Rain = 0
KAD1 241919Z 31007KT 27/05 A2987 RMK A01 T02670051  RH  025%=      5-min Rain = 0
KAD1 241920Z 32005KT 27/05 A2987 RMK A01 T02650052  RH  026%=      5-min Rain = 0
KAD1 241921Z 31002KT 26/05 A2986 RMK A01 T02630052  RH  026%=      5-min Rain = 0
KAD1 241922Z 30001KT 26/05 A2986 RMK A01 T02630051  RH  026%=      5-min Rain = 0
KAD1 241923Z 31007KT 26/05 A2986 RMK A01 T02630052  RH  026%=      5-min Rain = 0
KAD1 241924Z 31004KT 26/05 A2987 RMK A01 T02620050  RH  026%=      5-min Rain = 0
KAD1 241925Z 28002KT 26/05 A2986 RMK A01 T02600050  RH  026%=      5-min Rain = 0
KAD1 241926Z 29001KT 26/05 A2986 RMK A01 T02600049  RH  026%=      5-min Rain = 0
KAD1 241927Z 10001KT 26/05 A2986 RMK A01 T02600053  RH  026%=      5-min Rain = 0
KAD1 241928Z 10002KT 26/05 A2986 RMK A01 T02640053  RH  026%=      5-min Rain = 0
KAD1 241929Z 09003KT 27/05 A2986 RMK A01 T02660052  RH  025%=      5-min Rain = 0
KAD1 241930Z 05002KT 27/05 A2986 RMK A01 T02680053  RH  025%=      5-min Rain = 0
KAD1 241931Z 08000KT 27/05 A2986 RMK A01 T02690052  RH  025%=      5-min Rain = 0
KAD1 241932Z 18000KT 27/05 A2986 RMK A01 T02700051  RH  025%=      5-min Rain = 0
KAD1 241933Z 25003KT 27/05 A2986 RMK A01 T02720048  RH  024%=      5-min Rain = 0
KAD1 241934Z 25002KT 27/04 A2986 RMK A01 T02740039  RH  022%=      5-min Rain = 0
KAD1 241935Z 24000KT 28/04 A2986 RMK A01 T02760039  RH  022%=      5-min Rain = 0
KAD1 241936Z 31002G10KT 28/04 A2986 RMK A01 T02770039  RH  022%=      5-min Rain = 0
KAD1 241937Z 27008KT 28/04 A2986 RMK A01 T02790040  RH  022%=      5-min Rain = 0
KAD1 241938Z 26009KT 28/03 A2986 RMK A01 T02800033  RH  020%=      5-min Rain = 0
KAD1 241939Z 26008KT 28/03 A2986 RMK A01 T02790033  RH  021%=      5-min Rain = 0
KAD1 241940Z 27008KT 28/03 A2986 RMK A01 T02790028  RH  020%=      5-min Rain = 0
KAD1 241941Z 28007KT 28/03 A2986 RMK A01 T02780028  RH  020%=      5-min Rain = 0
KAD1 241942Z 29011KT 28/03 A2986 RMK A01 T02810031  RH  020%=      5-min Rain = 0
KAD1 241943Z 29010KT 29/03 A2986 RMK A01 T02850028  RH  019%=      5-min Rain = 0
KAD1 241944Z 26009KT 28/03 A2986 RMK A01 T02840028  RH  019%=      5-min Rain = 0
KAD1 241945Z 26009KT 28/02 A2986 RMK A01 T02830023  RH  019%=      5-min Rain = 0
KAD1 241946Z 26011KT 28/03 A2986 RMK A01 T02820025  RH  019%=      5-min Rain = 0
KAD1 241947Z 25008KT 28/02 A2986 RMK A01 T02810024  RH  019%=      5-min Rain = 0
KAD1 241948Z 24010KT 28/03 A2986 RMK A01 T02800027  RH  020%=      5-min Rain = 0
KAD1 241949Z 26010KT 28/03 A2986 RMK A01 T02790026  RH  020%=      5-min Rain = 0
KAD1 241950Z 26009KT 28/02 A2986 RMK A01 T02780023  RH  019%=      5-min Rain = 0
KAD1 241951Z 25007KT 28/02 A2986 RMK A01 T02760023  RH  020%=      5-min Rain = 0
KAD1 241952Z 26009KT 28/03 A2986 RMK A01 T02760027  RH  020%=      5-min Rain = 0
KAD1 241953Z 26006KT 28/03 A2986 RMK A01 T02770028  RH  020%=      5-min Rain = 0
KAD1 241954Z 25006G11KT 28/03 A2986 RMK A01 T02750030  RH  021%=      5-min Rain = 0
KAD1 241955Z 27002KT 27/03 A2985 RMK A01 T02740027  RH  020%=      5-min Rain = 0
KAD1 241956Z 26007KT 27/03 A2985 RMK A01 T02730030  RH  021%=      5-min Rain = 0
KAD1 241957Z 28008KT 27/03 A2985 RMK A01 T02730030  RH  021%=      5-min Rain = 0
KAD1 241958Z 28008KT 27/03 A2985 RMK A01 T02720028  RH  021%=      5-min Rain = 0
KAD1 241959Z 28005KT 27/02 A2985 RMK A01 T02710021  RH  020%=      5-min Rain = 0
KAD1 242000Z 28004KT 27/02 A2985 RMK A01 T02690019  RH  020%=      5-min Rain = 0
KAD1 242001Z 29004KT 27/02 A2985 RMK A01 T02680019  RH  020%=      5-min Rain = 0
KAD1 242002Z 28003KT 27/01 A2985 RMK A01 T02690014  RH  019%=      5-min Rain = 0
KAD1 242003Z 25005KT 27/02 A2985 RMK A01 T02690019  RH  020%=      5-min Rain = 0
KAD1 242004Z 24004KT 27/03 A2985 RMK A01 T02700026  RH  021%=      5-min Rain = 0
KAD1 242005Z 06002KT 27/03 A2985 RMK A01 T02710026  RH  021%=      5-min Rain = 0
KAD1 242006Z 09003KT 27/03 A2985 RMK A01 T02710026  RH  021%=      5-min Rain = 0
KAD1 242007Z 10002KT 27/03 A2985 RMK A01 T02700026  RH  021%=      5-min Rain = 0
KAD1 242008Z 19002KT 27/03 A2985 RMK A01 T02700025  RH  021%=      5-min Rain = 0
KAD1 242009Z 20006KT 27/03 A2985 RMK A01 T02700029  RH  021%=      5-min Rain = 0
KAD1 242010Z 18004KT 27/03 A2985 RMK A01 T02710026  RH  021%=      5-min Rain = 0
KAD1 242011Z 25002KT 27/03 A2985 RMK A01 T02700027  RH  021%=      5-min Rain = 0
KAD1 242012Z 08001KT 27/02 A2985 RMK A01 T02700024  RH  020%=      5-min Rain = 0
KAD1 242013Z 25003KT 27/02 A2985 RMK A01 T02690023  RH  020%=      5-min Rain = 0
KAD1 242014Z 25005KT 27/03 A2985 RMK A01 T02700030  RH  021%=      5-min Rain = 0
KAD1 242015Z 25006KT 27/03 A2985 RMK A01 T02700032  RH  021%=      5-min Rain = 0
KAD1 242016Z 25007KT 27/03 A2985 RMK A01 T02710031  RH  021%=      5-min Rain = 0
KAD1 242017Z 25003KT 27/03 A2985 RMK A01 T02700028  RH  021%=      5-min Rain = 0
KAD1 242018Z 29000KT 27/03 A2985 RMK A01 T02680028  RH  021%=      5-min Rain = 0
KAD1 242019Z 15001KT 27/03 A2985 RMK A01 T02690029  RH  021%=      5-min Rain = 0
KAD1 242020Z 15002KT 27/03 A2985 RMK A01 T02700029  RH  021%=      5-min Rain = 0
KAD1 242021Z 28002KT 27/03 A2985 RMK A01 T02710029  RH  021%=      5-min Rain = 0
KAD1 242022Z 28004KT 27/03 A2985 RMK A01 T02730033  RH  021%=      5-min Rain = 0
KAD1 242023Z 29003KT 28/03 A2985 RMK A01 T02760031  RH  021%=      5-min Rain = 0
KAD1 242024Z 29002KT 28/03 A2985 RMK A01 T02760029  RH  020%=      5-min Rain = 0
KAD1 242025Z 28001KT 28/03 A2985 RMK A01 T02750030  RH  021%=      5-min Rain = 0
KAD1 242026Z 25004KT 28/03 A2985 RMK A01 T02760029  RH  020%=      5-min Rain = 0
KAD1 242027Z 27006KT 28/03 A2985 RMK A01 T02760026  RH  020%=      5-min Rain = 0
KAD1 242028Z 26006KT 28/02 A2985 RMK A01 T02750022  RH  020%=      5-min Rain = 0
KAD1 242029Z 27006KT 28/03 A2985 RMK A01 T02750029  RH  020%=      5-min Rain = 0
KAD1 242030Z 27006KT 28/03 A2985 RMK A01 T02770031  RH  021%=      5-min Rain = 0
KAD1 242031Z 26009KT 28/03 A2985 RMK A01 T02790032  RH  020%=      5-min Rain = 0
KAD1 242032Z 26008KT 28/03 A2985 RMK A01 T02790029  RH  020%=      5-min Rain = 0
KAD1 242033Z 27005KT 28/03 A2985 RMK A01 T02780029  RH  020%=      5-min Rain = 0
KAD1 242034Z 26005KT 28/03 A2985 RMK A01 T02760030  RH  020%=      5-min Rain = 0
KAD1 242035Z 26003KT 28/03 A2985 RMK A01 T02780027  RH  020%=      5-min Rain = 0
KAD1 242036Z 26003KT 28/03 A2984 RMK A01 T02790025  RH  019%=      5-min Rain = 0
KAD1 242037Z 28003KT 28/03 A2984 RMK A01 T02780025  RH  019%=      5-min Rain = 0
KAD1 242038Z 26008KT 28/03 A2984 RMK A01 T02790027  RH  020%=      5-min Rain = 0
KAD1 242039Z 27006KT 28/02 A2984 RMK A01 T02800022  RH  019%=      5-min Rain = 0
KAD1 242040Z 27007KT 28/02 A2984 RMK A01 T02800021  RH  019%=      5-min Rain = 0
KAD1 242041Z 27008KT 28/02 A2984 RMK A01 T02810018  RH  018%=      5-min Rain = 0
KAD1 242042Z 25006KT 28/02 A2984 RMK A01 T02810016  RH  018%=      5-min Rain = 0
KAD1 242043Z 22005KT 28/02 A2984 RMK A01 T02790018  RH  019%=      5-min Rain = 0
KAD1 242044Z 22008KT 28/02 A2984 RMK A01 T02770021  RH  019%=      5-min Rain = 0
KAD1 242045Z 22007KT 28/02 A2984 RMK A01 T02760021  RH  019%=      5-min Rain = 0
KAD1 242046Z 22004KT 28/02 A2984 RMK A01 T02780017  RH  018%=      5-min Rain = 0
KAD1 242047Z 26002KT 28/02 A2984 RMK A01 T02770018  RH  019%=      5-min Rain = 0
KAD1 242048Z 22004G11KT 28/02 A2984 RMK A01 T02770019  RH  019%=      5-min Rain = 0
KAD1 242049Z 21007KT 28/02 A2984 RMK A01 T02800024  RH  019%=      5-min Rain = 0
KAD1 242050Z 18005KT 28/02 A2984 RMK A01 T02800020  RH  019%=      5-min Rain = 0
KAD1 242051Z 17003KT 28/02 A2984 RMK A01 T02770019  RH  019%=      5-min Rain = 0
KAD1 242052Z 21003G8KT 28/03 A2984 RMK A01 T02770025  RH  020%=      5-min Rain = 0
KAD1 242053Z 20007KT 28/02 A2984 RMK A01 T02810024  RH  019%=      5-min Rain = 0
KAD1 242054Z 20006KT 28/02 A2984 RMK A01 T02830021  RH  019%=      5-min Rain = 0
KAD1 242055Z 28005KT 28/02 A2984 RMK A01 T02840021  RH  018%=      5-min Rain = 0
KAD1 242056Z 29004KT 28/02 A2984 RMK A01 T02840017  RH  018%=      5-min Rain = 0
KAD1 242057Z 31002KT 28/02 A2983 RMK A01 T02810015  RH  018%=      5-min Rain = 0
KAD1 242058Z 30003KT 28/01 A2983 RMK A01 T02790014  RH  018%=      5-min Rain = 0
KAD1 242059Z 01003KT 28/01 A2983 RMK A01 T02790014  RH  018%=      5-min Rain = 0
KAD1 242100Z 06003KT 28/02 A2983 RMK A01 T02820019  RH  018%=      5-min Rain = 0
KAD1 242101Z 06002KT 29/02 A2983 RMK A01 T02860018  RH  018%=      5-min Rain = 0
KAD1 242102Z 32004KT 29/02 A2983 RMK A01 T02880016  RH  017%=      5-min Rain = 0
KAD1 242103Z 30001KT 29/01 A2983 RMK A01 T02870014  RH  017%=      5-min Rain = 0
KAD1 242104Z 24008G19KT 29/01 A2983 RMK A01 T02870012  RH  017%=      5-min Rain = 0
KAD1 242105Z 22015G21KT 29/01 A2983 RMK A01 T02910014  RH  017%=      5-min Rain = 0
KAD1 242106Z 21008KT 29/00 A2983 RMK A01 T02920004  RH  016%=      5-min Rain = 0
KAD1 242107Z 25007KT 29/01 A2983 RMK A01 T02900007  RH  016%=      5-min Rain = 0
KAD1 242108Z 28009KT 29/00 A2983 RMK A01 T02890003  RH  016%=      5-min Rain = 0
KAD1 242109Z 28005KT 29/00 A2983 RMK A01 T02860000  RH  016%=      5-min Rain = 0
KAD1 242110Z 27005KT 28/00 A2983 RMK A01 T02830003  RH  016%=      5-min Rain = 0
KAD1 242111Z 22004KT 29/01 A2983 RMK A01 T02860011  RH  017%=      5-min Rain = 0
KAD1 242112Z 25006KT 29/01 A2983 RMK A01 T02900013  RH  017%=      5-min Rain = 0
KAD1 242113Z 29006KT 29/01 A2982 RMK A01 T02930009  RH  016%=      5-min Rain = 0
KAD1 242114Z 28008KT 29/01 A2982 RMK A01 T02910009  RH  016%=      5-min Rain = 0
KAD1 242115Z 27006KT 29/01 A2982 RMK A01 T02880008  RH  016%=      5-min Rain = 0
KAD1 242116Z 26006KT 29/01 A2982 RMK A01 T02850009  RH  017%=      5-min Rain = 0
KAD1 242117Z 27003KT 29/01 A2982 RMK A01 T02850009  RH  017%=      5-min Rain = 0
KAD1 242118Z 29003KT 29/01 A2982 RMK A01 T02850009  RH  017%=      5-min Rain = 0
KAD1 242119Z 28006KT 29/01 A2982 RMK A01 T02860012  RH  017%=      5-min Rain = 0
KAD1 242120Z 26004KT 29/01 A2982 RMK A01 T02850011  RH  017%=      5-min Rain = 0
KAD1 242121Z 26007KT 29/01 A2982 RMK A01 T02860011  RH  017%=      5-min Rain = 0
KAD1 242122Z 25009KT 29/01 A2982 RMK A01 T02900009  RH  016%=      5-min Rain = 0
KAD1 242123Z 23007KT 29/01 A2982 RMK A01 T02910009  RH  016%=      5-min Rain = 0
KAD1 242124Z 23004KT 29/01 A2982 RMK A01 T02900011  RH  016%=      5-min Rain = 0
KAD1 242125Z 23005KT 29/01 A2982 RMK A01 T02920010  RH  016%=      5-min Rain = 0
KAD1 242126Z 26006KT 29/00 A2982 RMK A01 T02920004  RH  016%=      5-min Rain = 0
KAD1 242127Z 21007KT 29/01 A2982 RMK A01 T02900012  RH  017%=      5-min Rain = 0
KAD1 242128Z 22007KT 29/01 A2981 RMK A01 T02920006  RH  016%=      5-min Rain = 0
KAD1 242129Z 27009KT 29/01 A2981 RMK A01 T02910007  RH  016%=      5-min Rain = 0
KAD1 242130Z 25014KT 29/01 A2981 RMK A01 T02920010  RH  016%=      5-min Rain = 0
KAD1 242131Z 25012KT 29/01 A2981 RMK A01 T02910007  RH  016%=      5-min Rain = 0
KAD1 242132Z 25009KT 29/01 A2981 RMK A01 T02890007  RH  016%=      5-min Rain = 0
KAD1 242133Z 28009KT 29/01 A2981 RMK A01 T02880006  RH  016%=      5-min Rain = 0
KAD1 242134Z 27010KT 29/00 A2981 RMK A01 T02870004  RH  016%=      5-min Rain = 0
KAD1 242135Z 27010KT 29/01 A2981 RMK A01 T02870006  RH  016%=      5-min Rain = 0
KAD1 242136Z 28007KT 29/00 A2981 RMK A01 T02870003  RH  016%=      5-min Rain = 0
KAD1 242137Z 28010G15KT 28/01 A2981 RMK A01 T02840005  RH  016%=      5-min Rain = 0
KAD1 242138Z 25009KT 29/02 A2981 RMK A01 T02850015  RH  017%=      5-min Rain = 0
KAD1 242139Z 26009KT 29/01 A2981 RMK A01 T02890012  RH  017%=      5-min Rain = 0
KAD1 242140Z 27008KT 29/01 A2981 RMK A01 T02880006  RH  016%=      5-min Rain = 0
KAD1 242141Z 29006KT 29/01 A2981 RMK A01 T02850005  RH  016%=      5-min Rain = 0
KAD1 242142Z 26007KT 28/01 A298 RMK A01 T02840007  RH  017%=      5-min Rain = 0
KAD1 242143Z 25007KT 29/01 A298 RMK A01 T02850005  RH  016%=      5-min Rain = 0
KAD1 242144Z 24010G15KT 29/01 A298 RMK A01 T02850006  RH  016%=      5-min Rain = 0
KAD1 242145Z 20011KT 29/01 A298 RMK A01 T02860009  RH  017%=      5-min Rain = 0
KAD1 242146Z 21012KT 29/01 A298 RMK A01 T02870014  RH  017%=      5-min Rain = 0
KAD1 242147Z 22012KT 29/01 A298 RMK A01 T02910012  RH  017%=      5-min Rain = 0
KAD1 242148Z 23008KT 29/02 A298 RMK A01 T02910015  RH  017%=      5-min Rain = 0
KAD1 242149Z 24006KT 29/01 A298 RMK A01 T02910005  RH  016%=      5-min Rain = 0
KAD1 242150Z 27004KT 29/00 A298 RMK A01 T02880003  RH  016%=      5-min Rain = 0
KAD1 242151Z 25005KT 29/00 A298 RMK A01 T02860003  RH  016%=      5-min Rain = 0
KAD1 242152Z 24006KT 29/01 A298 RMK A01 T02850009  RH  017%=      5-min Rain = 0
KAD1 242153Z 23008KT 29/01 A298 RMK A01 T02880014  RH  017%=      5-min Rain = 0
KAD1 242154Z 20008KT 29/01 A298 RMK A01 T02900007  RH  016%=      5-min Rain = 0
KAD1 242155Z 19005KT 29/M00 A298 RMK A01 T02911001  RH  015%=      5-min Rain = 0
KAD1 242156Z 16003KT 29/M00 A298 RMK A01 T02901003  RH  015%=      5-min Rain = 0
KAD1 242157Z 23001KT 29/M00 A2979 RMK A01 T02901003  RH  015%=      5-min Rain = 0
KAD1 242158Z 19005KT 29/00 A2979 RMK A01 T02910002  RH  015%=      5-min Rain = 0
KAD1 242159Z 17006KT 29/00 A2979 RMK A01 T02920001  RH  015%=      5-min Rain = 0
KAD1 242200Z 17009KT 29/00 A2979 RMK A01 T02910004  RH  016%=      5-min Rain = 0
KAD1 242201Z 16009KT 29/01 A2979 RMK A01 T02920005  RH  016%=      5-min Rain = 0
KAD1 242202Z 17006KT 29/01 A2979 RMK A01 T02920005  RH  016%=      5-min Rain = 0
KAD1 242203Z 17004KT 29/00 A2979 RMK A01 T02900003  RH  016%=      5-min Rain = 0
KAD1 242204Z 14008KT 29/01 A2979 RMK A01 T02900006  RH  016%=      5-min Rain = 0
KAD1 242205Z 13008KT 29/01 A2979 RMK A01 T02940006  RH  016%=      5-min Rain = 0
KAD1 242206Z 13006KT 29/00 A2979 RMK A01 T02930002  RH  015%=      5-min Rain = 0
KAD1 242207Z 16004KT 29/00 A2979 RMK A01 T02890000  RH  015%=      5-min Rain = 0
KAD1 242208Z 16004KT 29/00 A2979 RMK A01 T02870002  RH  016%=      5-min Rain = 0
KAD1 242209Z 20005KT 29/M00 A2979 RMK A01 T02881001  RH  015%=      5-min Rain = 0
KAD1 242210Z 21002KT 29/00 A2979 RMK A01 T028800-0  RH  015%=      5-min Rain = 0
KAD1 242211Z 13003KT 29/00 A2978 RMK A01 T02890002  RH  016%=      5-min Rain = 0
KAD1 242212Z 13004KT 29/00 A2978 RMK A01 T02890002  RH  016%=      5-min Rain = 0
KAD1 242213Z 17003KT 29/00 A2978 RMK A01 T02890002  RH  016%=      5-min Rain = 0
KAD1 242214Z 17001KT 29/00 A2978 RMK A01 T02890001  RH  015%=      5-min Rain = 0
KAD1 242215Z 26004KT 29/00 A2978 RMK A01 T02900002  RH  015%=      5-min Rain = 0
KAD1 242216Z 23006KT 29/00 A2978 RMK A01 T02930003  RH  015%=      5-min Rain = 0
KAD1 242217Z 24007KT 30/00 A2978 RMK A01 T02950003  RH  015%=      5-min Rain = 0
KAD1 242218Z 23005KT 29/00 A2978 RMK A01 T02940002  RH  015%=      5-min Rain = 0
KAD1 242219Z 19003KT 29/01 A2978 RMK A01 T02930006  RH  016%=      5-min Rain = 0
KAD1 242220Z 22007KT 30/00 A2978 RMK A01 T02950003  RH  015%=      5-min Rain = 0
KAD1 242221Z 23007G13KT 30/M00 A2978 RMK A01 T02961002  RH  014%=      5-min Rain = 0
KAD1 242222Z 23012KT 30/M01 A2978 RMK A01 T02981007  RH  014%=      5-min Rain = 0
KAD1 242223Z 23007KT 30/M02 A2978 RMK A01 T02981016  RH  013%=      5-min Rain = 0
KAD1 242224Z 21007KT 30/M02 A2978 RMK A01 T02961015  RH  013%=      5-min Rain = 0
KAD1 242225Z 21009KT 30/M02 A2978 RMK A01 T02961015  RH  013%=      5-min Rain = 0
KAD1 242226Z 25010KT 30/M01 A2977 RMK A01 T02981008  RH  014%=      5-min Rain = 0
KAD1 242227Z 20008G14KT 30/M01 A2977 RMK A01 T03021012  RH  013%=      5-min Rain = 0
KAD1 242228Z 20011G16KT 30/M02 A2977 RMK A01 T03001017  RH  013%=      5-min Rain = 0
KAD1 242229Z 19013KT 30/M02 A2977 RMK A01 T02971016  RH  013%=      5-min Rain = 0
KAD1 242230Z 20010KT 29/M02 A2977 RMK A01 T02931020  RH  013%=      5-min Rain = 0
KAD1 242231Z 20011KT 29/M02 A2977 RMK A01 T02911018  RH  013%=      5-min Rain = 0
KAD1 242232Z 22011KT 29/M01 A2977 RMK A01 T02901014  RH  014%=      5-min Rain = 0
KAD1 242233Z 21013KT 29/M02 A2977 RMK A01 T02901015  RH  014%=      5-min Rain = 0
KAD1 242234Z 21011KT 29/M02 A2977 RMK A01 T02881018  RH  014%=      5-min Rain = 0
KAD1 242235Z 21015KT 29/M02 A2977 RMK A01 T02871018  RH  014%=      5-min Rain = 0
KAD1 242236Z 20013G18KT 29/M02 A2977 RMK A01 T02891017  RH  014%=      5-min Rain = 0
KAD1 242237Z 20014KT 29/M02 A2977 RMK A01 T02911021  RH  013%=      5-min Rain = 0
KAD1 242238Z 18013G18KT 29/M02 A2977 RMK A01 T02901024  RH  013%=      5-min Rain = 0
KAD1 242239Z 18016KT 29/M02 A2976 RMK A01 T02921024  RH  013%=      5-min Rain = 0
KAD1 242240Z 19012KT 30/M02 A2977 RMK A01 T02961024  RH  012%=      5-min Rain = 0
KAD1 242241Z 18012KT 30/M02 A2976 RMK A01 T02981019  RH  013%=      5-min Rain = 0
KAD1 242242Z 19014KT 30/M02 A2976 RMK A01 T03011020  RH  012%=      5-min Rain = 0
KAD1 242243Z 20015KT 30/M02 A2976 RMK A01 T03031019  RH  012%=      5-min Rain = 0
KAD1 242244Z 21014KT 30/M02 A2976 RMK A01 T03021017  RH  013%=      5-min Rain = 0
KAD1 242245Z 22013KT 30/M02 A2976 RMK A01 T03011018  RH  013%=      5-min Rain = 0
KAD1 242246Z 22015KT 30/M01 A2976 RMK A01 T03011014  RH  013%=      5-min Rain = 0
KAD1 242247Z 20012KT 30/M02 A2976 RMK A01 T03011020  RH  012%=      5-min Rain = 0
KAD1 242248Z 21013KT 30/M02 A2976 RMK A01 T03011018  RH  013%=      5-min Rain = 0
KAD1 242249Z 22017KT 30/M02 A2976 RMK A01 T03011020  RH  012%=      5-min Rain = 0
KAD1 242250Z 22015KT 30/M02 A2976 RMK A01 T03001019  RH  013%=      5-min Rain = 0
KAD1 242251Z 21017KT 30/M02 A2976 RMK A01 T03001023  RH  012%=      5-min Rain = 0
KAD1 242252Z 23019KT 30/M03 A2976 RMK A01 T03021029  RH  012%=      5-min Rain = 0
KAD1 242253Z 23020KT 30/M03 A2976 RMK A01 T03001033  RH  011%=      5-min Rain = 0
KAD1 242254Z 22021KT 30/M03 A2975 RMK A01 T02971032  RH  012%=      5-min Rain = 0
KAD1 242255Z 23019G24KT 30/M03 A2976 RMK A01 T02971030  RH  012%=      5-min Rain = 0
KAD1 242256Z 22015KT 30/M03 A2976 RMK A01 T02981029  RH  012%=      5-min Rain = 0
KAD1 242257Z 21013KT 30/M03 A2975 RMK A01 T03001028  RH  012%=      5-min Rain = 0
KAD1 242258Z 21012KT 30/M03 A2975 RMK A01 T03011029  RH  012%=      5-min Rain = 0
KAD1 242259Z 23018KT 30/M03 A2975 RMK A01 T03031027  RH  012%=      5-min Rain = 0
KAD1 242300Z 22023KT 30/M03 A2975 RMK A01 T03031030  RH  011%=      5-min Rain = 0
KAD1 242301Z 23020KT 30/M04 A2975 RMK A01 T03041035  RH  011%=      5-min Rain = 0
KAD1 242302Z 22019G25KT 30/M04 A2975 RMK A01 T03011038  RH  011%=      5-min Rain = 0
KAD1 242303Z 21016G22KT 30/M04 A2975 RMK A01 T03001037  RH  011%=      5-min Rain = 0
KAD1 242304Z 22018KT 30/M04 A2975 RMK A01 T03001035  RH  011%=      5-min Rain = 0
KAD1 242305Z 21015KT 30/M04 A2975 RMK A01 T03011038  RH  011%=      5-min Rain = 0
KAD1 242306Z 22012KT 30/M04 A2975 RMK A01 T03001038  RH  011%=      5-min Rain = 0
KAD1 242307Z 22015G21KT 30/M03 A2975 RMK A01 T03021031  RH  011%=      5-min Rain = 0
KAD1 242308Z 21018KT 30/M03 A2975 RMK A01 T03041029  RH  011%=      5-min Rain = 0
KAD1 242309Z 20022KT 31/M04 A2974 RMK A01 T03061035  RH  011%=      5-min Rain = 0
KAD1 242310Z 20020KT 31/M04 A2974 RMK A01 T03051035  RH  011%=      5-min Rain = 0
KAD1 242311Z 20016KT 30/M04 A2974 RMK A01 T03031037  RH  011%=      5-min Rain = 0
KAD1 242312Z 21017KT 30/M03 A2974 RMK A01 T03021033  RH  011%=      5-min Rain = 0
KAD1 242313Z 21014KT 30/M03 A2974 RMK A01 T03041033  RH  011%=      5-min Rain = 0
KAD1 242314Z 21019G25KT 30/M03 A2974 RMK A01 T03041027  RH  012%=      5-min Rain = 0
KAD1 242315Z 20021KT 31/M03 A2974 RMK A01 T03061032  RH  011%=      5-min Rain = 0
KAD1 242316Z 20020KT 31/M04 A2974 RMK A01 T03051036  RH  011%=      5-min Rain = 0
KAD1 242317Z 21018KT 30/M04 A2974 RMK A01 T03031035  RH  011%=      5-min Rain = 0
KAD1 242318Z 21015KT 30/M04 A2974 RMK A01 T03021038  RH  011%=      5-min Rain = 0
KAD1 242319Z 21017KT 30/M03 A2974 RMK A01 T03021031  RH  011%=      5-min Rain = 0
KAD1 242320Z 21014KT 30/M04 A2974 RMK A01 T03041035  RH  011%=      5-min Rain = 0
KAD1 242321Z 21015KT 30/M04 A2974 RMK A01 T03041035  RH  011%=      5-min Rain = 0
KAD1 242322Z 21012KT 30/M04 A2974 RMK A01 T03031039  RH  011%=      5-min Rain = 0
KAD1 242323Z 21012KT 30/M04 A2973 RMK A01 T03031039  RH  011%=      5-min Rain = 0
KAD1 242324Z 21010KT 30/M04 A2973 RMK A01 T03021038  RH  011%=      5-min Rain = 0
KAD1 242325Z 21014KT 30/M03 A2973 RMK A01 T03021033  RH  011%=      5-min Rain = 0
KAD1 242326Z 21013KT 30/M04 A2973 RMK A01 T03031037  RH  011%=      5-min Rain = 0
KAD1 242327Z 21013KT 30/M04 A2973 RMK A01 T03031038  RH  011%=      5-min Rain = 0
KAD1 242328Z 22012KT 30/M04 A2973 RMK A01 T03021038  RH  011%=      5-min Rain = 0
KAD1 242329Z 21012KT 30/M04 A2973 RMK A01 T03021037  RH  011%=      5-min Rain = 0
KAD1 242330Z 22008KT 30/M04 A2973 RMK A01 T03031040  RH  011%=      5-min Rain = 0
KAD1 242331Z 21009G14KT 30/M04 A2973 RMK A01 T03021043  RH  010%=      5-min Rain = 0
KAD1 242332Z 20012KT 30/M04 A2973 RMK A01 T03011036  RH  011%=      5-min Rain = 0
KAD1 242333Z 20013KT 31/M04 A2973 RMK A01 T03051035  RH  011%=      5-min Rain = 0
KAD1 242334Z 20016KT 31/M04 A2973 RMK A01 T03081038  RH  010%=      5-min Rain = 0
KAD1 242335Z 20017KT 31/M04 A2973 RMK A01 T03081041  RH  010%=      5-min Rain = 0
KAD1 242336Z 22015KT 30/M05 A2973 RMK A01 T03041046  RH  010%=      5-min Rain = 0
KAD1 242337Z 22012KT 30/M04 A2973 RMK A01 T03021044  RH  010%=      5-min Rain = 0
KAD1 242338Z 23011KT 30/M04 A2973 RMK A01 T03021041  RH  011%=      5-min Rain = 0
KAD1 242339Z 24010KT 30/M04 A2973 RMK A01 T03021040  RH  011%=      5-min Rain = 0
KAD1 242340Z 24008KT 30/M04 A2973 RMK A01 T03031038  RH  011%=      5-min Rain = 0
KAD1 242341Z 25010KT 30/M04 A2973 RMK A01 T03041040  RH  011%=      5-min Rain = 0
KAD1 242342Z 25014G20KT 30/M04 A2973 RMK A01 T03041035  RH  011%=      5-min Rain = 0
KAD1 242343Z 25016KT 31/M04 A2973 RMK A01 T03061036  RH  011%=      5-min Rain = 0
KAD1 242344Z 26013KT 31/M04 A2973 RMK A01 T03061044  RH  010%=      5-min Rain = 0
KAD1 242345Z 26012KT 30/M05 A2973 RMK A01 T03031046  RH  010%=      5-min Rain = 0
KAD1 242346Z 26012KT 30/M05 A2973 RMK A01 T03021045  RH  010%=      5-min Rain = 0
KAD1 242347Z 24010KT 30/M05 A2973 RMK A01 T03021046  RH  010%=      5-min Rain = 0
KAD1 242348Z 24006KT 30/M05 A2973 RMK A01 T03021052  RH  010%=      5-min Rain = 0
KAD1 242349Z 25010KT 30/M05 A2973 RMK A01 T03011045  RH  010%=      5-min Rain = 0
KAD1 242350Z 24012KT 30/M04 A2973 RMK A01 T03031043  RH  010%=      5-min Rain = 0
KAD1 242351Z 24010KT 30/M05 A2973 RMK A01 T03031045  RH  010%=      5-min Rain = 0
KAD1 242352Z 23008KT 30/M05 A2973 RMK A01 T03021048  RH  010%=      5-min Rain = 0
KAD1 242353Z 25006KT 30/M05 A2973 RMK A01 T03011049  RH  010%=      5-min Rain = 0
KAD1 242354Z 24007KT 30/M05 A2973 RMK A01 T03001046  RH  010%=      5-min Rain = 0
KAD1 242355Z 21006KT 30/M05 A2972 RMK A01 T03001046  RH  010%=      5-min Rain = 0
KAD1 242356Z 23005KT 30/M04 A2972 RMK A01 T03001043  RH  011%=      5-min Rain = 0
KAD1 242357Z 21007KT 30/M04 A2972 RMK A01 T03011039  RH  011%=      5-min Rain = 0
KAD1 242358Z 21018G23KT 30/M04 A2972 RMK A01 T03031035  RH  011%=      5-min Rain = 0
KAD1 242359Z 20019KT 30/M04 A2972 RMK A01 T03041037  RH  011%=      5-min Rain = 0
KAD1 250000Z 21018KT 30/M04 A2972 RMK A01 T03031036  RH  011%=      5-min Rain = 0
KAD1 250001Z 21020KT 30/M04 A2972 RMK A01 T03021036  RH  011%=      5-min Rain = 0
KAD1 250002Z 21020KT 30/M04 A2972 RMK A01 T03001041  RH  011%=      5-min Rain = 0
KAD1 250003Z 22016KT 30/M04 A2972 RMK A01 T02961041  RH  011%=      5-min Rain = 0
KAD1 250004Z 21015KT 30/M04 A2972 RMK A01 T02951041  RH  011%=      5-min Rain = 0
KAD1 250005Z 21015KT 29/M04 A2972 RMK A01 T02931040  RH  011%=      5-min Rain = 0
KAD1 250006Z 22013G18KT 30/M04 A2972 RMK A01 T02951040  RH  011%=      5-min Rain = 0
KAD1 250007Z 22014KT 30/M04 A2972 RMK A01 T02961039  RH  011%=      5-min Rain = 0
KAD1 250008Z 22015KT 30/M04 A2972 RMK A01 T02981040  RH  011%=      5-min Rain = 0
KAD1 250009Z 23010KT 30/M04 A2972 RMK A01 T02981044  RH  011%=      5-min Rain = 0
KAD1 250010Z 20013KT 30/M04 A2972 RMK A01 T02981040  RH  011%=      5-min Rain = 0
KAD1 250011Z 19014KT 30/M04 A2972 RMK A01 T02991042  RH  011%=      5-min Rain = 0
KAD1 250012Z 20011KT 30/M05 A2972 RMK A01 T03001045  RH  010%=      5-min Rain = 0
KAD1 250013Z 19013KT 30/M05 A2972 RMK A01 T02991046  RH  010%=      5-min Rain = 0
KAD1 250014Z 20013KT 30/M05 A2972 RMK A01 T02981048  RH  010%=      5-min Rain = 0
KAD1 250015Z 20011KT 30/M04 A2972 RMK A01 T02971044  RH  011%=      5-min Rain = 0
KAD1 250016Z 19010KT 30/M04 A2972 RMK A01 T02991040  RH  011%=      5-min Rain = 0
KAD1 250017Z 19010KT 30/M04 A2972 RMK A01 T03001040  RH  011%=      5-min Rain = 0
KAD1 250018Z 19010KT 30/M04 A2972 RMK A01 T03001044  RH  010%=      5-min Rain = 0
KAD1 250019Z 21009KT 30/M05 A2972 RMK A01 T02991045  RH  010%=      5-min Rain = 0
KAD1 250020Z 23006KT 30/M05 A2972 RMK A01 T02971045  RH  010%=      5-min Rain = 0
KAD1 250021Z 20005KT 30/M05 A2972 RMK A01 T02961047  RH  010%=      5-min Rain = 0
KAD1 250022Z 18004KT 30/M05 A2972 RMK A01 T02961049  RH  010%=      5-min Rain = 0
KAD1 250023Z 27007KT 30/M05 A2972 RMK A01 T02961047  RH  010%=      5-min Rain = 0
KAD1 250024Z 25008KT 30/M04 A2972 RMK A01 T02971043  RH  011%=      5-min Rain = 0
KAD1 250025Z 24009G14KT 30/M04 A2972 RMK A01 T02981043  RH  011%=      5-min Rain = 0
KAD1 250026Z 23014KT 30/M04 A2972 RMK A01 T02981044  RH  011%=      5-min Rain = 0
KAD1 250027Z 23013KT 30/M05 A2972 RMK A01 T02971047  RH  010%=      5-min Rain = 0
KAD1 250028Z 22018KT 30/M05 A2972 RMK A01 T02971047  RH  010%=      5-min Rain = 0
KAD1 250029Z 23016KT 30/M05 A2972 RMK A01 T02961050  RH  010%=      5-min Rain = 0
KAD1 250030Z 23016KT 30/M05 A2972 RMK A01 T02961049  RH  010%=      5-min Rain = 0
KAD1 250031Z 23015KT 30/M05 A2972 RMK A01 T02951050  RH  010%=      5-min Rain = 0
KAD1 250032Z 23012KT 30/M05 A2972 RMK A01 T02951049  RH  010%=      5-min Rain = 0
KAD1 250033Z 23009KT 30/M05 A2972 RMK A01 T02951046  RH  011%=      5-min Rain = 0
KAD1 250034Z 24011KT 30/M04 A2972 RMK A01 T02961043  RH  011%=      5-min Rain = 0
KAD1 250035Z 23010KT 30/M05 A2971 RMK A01 T02971051  RH  010%=      5-min Rain = 0
KAD1 250036Z 23010KT 30/M05 A2971 RMK A01 T02961045  RH  011%=      5-min Rain = 0
KAD1 250037Z 22013KT 30/M04 A2971 RMK A01 T02961041  RH  011%=      5-min Rain = 0
KAD1 250038Z 22018KT 30/M05 A2971 RMK A01 T02971049  RH  010%=      5-min Rain = 0
KAD1 250039Z 22017KT 30/M05 A2971 RMK A01 T02961050  RH  010%=      5-min Rain = 0
KAD1 250040Z 23016KT 30/M05 A2971 RMK A01 T02951049  RH  010%=      5-min Rain = 0
KAD1 250041Z 23016KT 30/M05 A2971 RMK A01 T02951048  RH  010%=      5-min Rain = 0
KAD1 250042Z 21016KT 30/M05 A2971 RMK A01 T02951048  RH  010%=      5-min Rain = 0
KAD1 250043Z 21014KT 29/M05 A2971 RMK A01 T02941050  RH  010%=      5-min Rain = 0
KAD1 250044Z 23014KT 29/M05 A2971 RMK A01 T02941045  RH  011%=      5-min Rain = 0
KAD1 250045Z 23015KT 29/M05 A2971 RMK A01 T02941050  RH  010%=      5-min Rain = 0
KAD1 250046Z 21013KT 29/M05 A2971 RMK A01 T02931049  RH  010%=      5-min Rain = 0
KAD1 250047Z 21011KT 29/M05 A2971 RMK A01 T02931049  RH  010%=      5-min Rain = 0
KAD1 250048Z 21013KT 29/M05 A2971 RMK A01 T02921049  RH  010%=      5-min Rain = 0
KAD1 250049Z 22013KT 29/M05 A2971 RMK A01 T02921051  RH  010%=      5-min Rain = 0
KAD1 250050Z 21014KT 29/M05 A2971 RMK A01 T02921050  RH  010%=      5-min Rain = 0
KAD1 250051Z 21014KT 29/M05 A2971 RMK A01 T02921050  RH  010%=      5-min Rain = 0
KAD1 250052Z 22012KT 29/M05 A2971 RMK A01 T02921048  RH  011%=      5-min Rain = 0
KAD1 250053Z 23012KT 29/M05 A2971 RMK A01 T02921046  RH  011%=      5-min Rain = 0
KAD1 250054Z 22015KT 29/M05 A2971 RMK A01 T02921046  RH  011%=      5-min Rain = 0
KAD1 250055Z 22013KT 29/M05 A2971 RMK A01 T02921048  RH  011%=      5-min Rain = 0
KAD1 250056Z 22013KT 29/M05 A2971 RMK A01 T02921047  RH  011%=      5-min Rain = 0
KAD1 250057Z 21015KT 29/M05 A2971 RMK A01 T02921047  RH  011%=      5-min Rain = 0
KAD1 250058Z 22013KT 29/M05 A2971 RMK A01 T02911048  RH  011%=      5-min Rain = 0
KAD1 250059Z 22011KT 29/M05 A2971 RMK A01 T02921045  RH  011%=      5-min Rain = 0
KAD1 250100Z 22013KT 29/M04 A2971 RMK A01 T02911044  RH  011%=      5-min Rain = 0
KAD1 250101Z 22011KT 29/M05 A2971 RMK A01 T02911045  RH  011%=      5-min Rain = 0
KAD1 250102Z 22012KT 29/M05 A2971 RMK A01 T02911046  RH  011%=      5-min Rain = 0
KAD1 250103Z 22011KT 29/M05 A2971 RMK A01 T02901047  RH  011%=      5-min Rain = 0
KAD1 250104Z 22012KT 29/M05 A2971 RMK A01 T02901048  RH  011%=      5-min Rain = 0
KAD1 250105Z 22012KT 29/M05 A2971 RMK A01 T02901049  RH  011%=      5-min Rain = 0
KAD1 250106Z 21011KT 29/M04 A2971 RMK A01 T02891044  RH  011%=      5-min Rain = 0
KAD1 250107Z 21011KT 29/M05 A2971 RMK A01 T02891046  RH  011%=      5-min Rain = 0
KAD1 250108Z 21011KT 29/M05 A2971 RMK A01 T02891045  RH  011%=      5-min Rain = 0
KAD1 250109Z 22014KT 29/M05 A2971 RMK A01 T02881045  RH  011%=      5-min Rain = 0
KAD1 250110Z 22013KT 29/M04 A2971 RMK A01 T02881044  RH  011%=      5-min Rain = 0
KAD1 250111Z 21014KT 29/M05 A2971 RMK A01 T02881046  RH  011%=      5-min Rain = 0
KAD1 250112Z 21014KT 29/M05 A2971 RMK A01 T02881046  RH  011%=      5-min Rain = 0
KAD1 250113Z 22013KT 29/M05 A2971 RMK A01 T02881045  RH  011%=      5-min Rain = 0
KAD1 250114Z 22014KT 29/M04 A2971 RMK A01 T02871044  RH  011%=      5-min Rain = 0
KAD1 250115Z 23014KT 29/M05 A2971 RMK A01 T02871047  RH  011%=      5-min Rain = 0
KAD1 250116Z 23013KT 29/M05 A2971 RMK A01 T02861047  RH  011%=      5-min Rain = 0
KAD1 250117Z 24012KT 29/M05 A2971 RMK A01 T02861049  RH  011%=      5-min Rain = 0
KAD1 250118Z 23010KT 29/M05 A2971 RMK A01 T02861048  RH  011%=      5-min Rain = 0
KAD1 250119Z 23010KT 29/M05 A2971 RMK A01 T02851045  RH  011%=      5-min Rain = 0
KAD1 250120Z 22011KT 29/M05 A2971 RMK A01 T02851046  RH  011%=      5-min Rain = 0
KAD1 250121Z 22009KT 29/M05 A2971 RMK A01 T02851049  RH  011%=      5-min Rain = 0
KAD1 250122Z 22009KT 28/M04 A2971 RMK A01 T02841044  RH  011%=      5-min Rain = 0
KAD1 250123Z 22008KT 28/M04 A2971 RMK A01 T02841043  RH  012%=      5-min Rain = 0
KAD1 250124Z 22008KT 28/M04 A2971 RMK A01 T02831042  RH  012%=      5-min Rain = 0
KAD1 250125Z 22009KT 28/M04 A2971 RMK A01 T02821042  RH  012%=      5-min Rain = 0
KAD1 250126Z 21008KT 28/M04 A2971 RMK A01 T02811043  RH  012%=      5-min Rain = 0
KAD1 250127Z 21011KT 28/M04 A2971 RMK A01 T02811044  RH  012%=      5-min Rain = 0
KAD1 250128Z 21009KT 28/M04 A2971 RMK A01 T02801044  RH  012%=      5-min Rain = 0
KAD1 250129Z 21010KT 28/M04 A2971 RMK A01 T02791044  RH  012%=      5-min Rain = 0
KAD1 250130Z 21009KT 28/M04 A2971 RMK A01 T02781043  RH  012%=      5-min Rain = 0
KAD1 250131Z 21008KT 28/M04 A2971 RMK A01 T02771042  RH  012%=      5-min Rain = 0
KAD1 250132Z 22009KT 28/M04 A2971 RMK A01 T02761041  RH  012%=      5-min Rain = 0
KAD1 250133Z 22010KT 28/M04 A2971 RMK A01 T02751043  RH  012%=      5-min Rain = 0
KAD1 250134Z 22010KT 27/M05 A2971 RMK A01 T02741046  RH  012%=      5-min Rain = 0
KAD1 250135Z 22010KT 28/M05 A2971 RMK A01 T02751045  RH  012%=      5-min Rain = 0
KAD1 250136Z 22010KT 28/M05 A2971 RMK A01 T02751045  RH  012%=      5-min Rain = 0
KAD1 250137Z 22008KT 28/M04 A2971 RMK A01 T02751044  RH  012%=      5-min Rain = 0
KAD1 250138Z 23008KT 27/M04 A2971 RMK A01 T02741041  RH  012%=      5-min Rain = 0
KAD1 250139Z 22008KT 27/M04 A2971 RMK A01 T02721041  RH  013%=      5-min Rain = 0
KAD1 250140Z 22008KT 27/M04 A2971 RMK A01 T02701040  RH  013%=      5-min Rain = 0
KAD1 250141Z 23008KT 27/M04 A2971 RMK A01 T02701043  RH  012%=      5-min Rain = 0
KAD1 250142Z 22008KT 27/M04 A2971 RMK A01 T02701044  RH  012%=      5-min Rain = 0
KAD1 250143Z 23008KT 27/M04 A297 RMK A01 T02701043  RH  012%=      5-min Rain = 0
KAD1 250144Z 23009KT 27/M04 A297 RMK A01 T02701042  RH  013%=      5-min Rain = 0
KAD1 250145Z 22010KT 27/M04 A297 RMK A01 T02681043  RH  013%=      5-min Rain = 0
KAD1 250146Z 23010KT 27/M04 A297 RMK A01 T02681043  RH  013%=      5-min Rain = 0
KAD1 250147Z 23008KT 27/M04 A297 RMK A01 T02681043  RH  013%=      5-min Rain = 0
KAD1 250148Z 23008KT 27/M04 A297 RMK A01 T02671042  RH  013%=      5-min Rain = 0
KAD1 250149Z 23008KT 27/M04 A297 RMK A01 T02651040  RH  013%=      5-min Rain = 0
KAD1 250150Z 23008KT 26/M04 A297 RMK A01 T02641041  RH  013%=      5-min Rain = 0
KAD1 250151Z 23008KT 26/M04 A297 RMK A01 T02631042  RH  013%=      5-min Rain = 0
KAD1 250152Z 22008KT 26/M04 A297 RMK A01 T02631043  RH  013%=      5-min Rain = 0
KAD1 250153Z 23008KT 26/M04 A297 RMK A01 T02631043  RH  013%=      5-min Rain = 0
KAD1 250154Z 23008KT 26/M04 A297 RMK A01 T02631042  RH  013%=      5-min Rain = 0
KAD1 250155Z 23007KT 26/M04 A297 RMK A01 T02621042  RH  013%=      5-min Rain = 0
KAD1 250156Z 23007KT 26/M04 A297 RMK A01 T02611042  RH  013%=      5-min Rain = 0
KAD1 250157Z 23007KT 26/M04 A297 RMK A01 T02591042  RH  013%=      5-min Rain = 0
KAD1 250158Z 23007KT 26/M04 A297 RMK A01 T02581041  RH  014%=      5-min Rain = 0
KAD1 250159Z 22007KT 26/M04 A2971 RMK A01 T02561040  RH  014%=      5-min Rain = 0
KAD1 250200Z 22007KT 25/M04 A2971 RMK A01 T02541039  RH  014%=      5-min Rain = 0
KAD1 250201Z 22007KT 25/M04 A2971 RMK A01 T02521039  RH  014%=      5-min Rain = 0
KAD1 250202Z 22007KT 25/M04 A2971 RMK A01 T02501039  RH  015%=      5-min Rain = 0
KAD1 250203Z 22008KT 25/M04 A2971 RMK A01 T02481039  RH  015%=      5-min Rain = 0
KAD1 250204Z 22007KT 25/M04 A2971 RMK A01 T02481038  RH  015%=      5-min Rain = 0
KAD1 250205Z 22007KT 25/M04 A2972 RMK A01 T02461037  RH  015%=      5-min Rain = 0
KAD1 250206Z 22008KT 24/M04 A2972 RMK A01 T02441037  RH  015%=      5-min Rain = 0
KAD1 250207Z 22008KT 24/M04 A2972 RMK A01 T02421037  RH  015%=      5-min Rain = 0
KAD1 250208Z 21008KT 24/M04 A2972 RMK A01 T02411036  RH  016%=      5-min Rain = 0
KAD1 250209Z 22008KT 24/M04 A2972 RMK A01 T02391036  RH  016%=      5-min Rain = 0
KAD1 250210Z 22008KT 24/M04 A2972 RMK A01 T02371035  RH  016%=      5-min Rain = 0
KAD1 250211Z 22008KT 24/M04 A2972 RMK A01 T02351035  RH  016%=      5-min Rain = 0
KAD1 250212Z 22008KT 23/M04 A2972 RMK A01 T02331035  RH  017%=      5-min Rain = 0
KAD1 250213Z 22008KT 23/M03 A2972 RMK A01 T02311034  RH  017%=      5-min Rain = 0
KAD1 250214Z 22008KT 23/M03 A2972 RMK A01 T02301033  RH  017%=      5-min Rain = 0
KAD1 250215Z 22008KT 23/M03 A2973 RMK A01 T02281033  RH  017%=      5-min Rain = 0
KAD1 250216Z 22008KT 23/M03 A2973 RMK A01 T02271033  RH  017%=      5-min Rain = 0
KAD1 250217Z 22008KT 23/M03 A2973 RMK A01 T02251033  RH  018%=      5-min Rain = 0
KAD1 250218Z 21008KT 22/M03 A2973 RMK A01 T02241033  RH  018%=      5-min Rain = 0
KAD1 250219Z 21008KT 22/M03 A2973 RMK A01 T02241034  RH  018%=      5-min Rain = 0
KAD1 250220Z 21007KT 22/M03 A2973 RMK A01 T02241033  RH  018%=      5-min Rain = 0
KAD1 250221Z 21008KT 22/M03 A2973 RMK A01 T02231032  RH  018%=      5-min Rain = 0
KAD1 250222Z 21009KT 22/M03 A2973 RMK A01 T02221031  RH  018%=      5-min Rain = 0
KAD1 250223Z 21009KT 22/M03 A2973 RMK A01 T02201031  RH  018%=      5-min Rain = 0
KAD1 250224Z 21009KT 22/M03 A2973 RMK A01 T02191030  RH  019%=      5-min Rain = 0
KAD1 250225Z 21009KT 22/M03 A2973 RMK A01 T02181028  RH  019%=      5-min Rain = 0
KAD1 250226Z 22009KT 22/M03 A2973 RMK A01 T02151027  RH  020%=      5-min Rain = 0
KAD1 250227Z 21009KT 21/M03 A2973 RMK A01 T02131026  RH  020%=      5-min Rain = 0
KAD1 250228Z 21009KT 21/M03 A2973 RMK A01 T02111026  RH  020%=      5-min Rain = 0
KAD1 250229Z 21009KT 21/M03 A2973 RMK A01 T02101027  RH  020%=      5-min Rain = 0
KAD1 250230Z 21009KT 21/M03 A2973 RMK A01 T02101026  RH  020%=      5-min Rain = 0
KAD1 250231Z 21009KT 21/M03 A2973 RMK A01 T02091026  RH  020%=      5-min Rain = 0
KAD1 250232Z 21009KT 21/M03 A2973 RMK A01 T02081026  RH  020%=      5-min Rain = 0
KAD1 250233Z 21009KT 21/M03 A2973 RMK A01 T02081026  RH  021%=      5-min Rain = 0
KAD1 250234Z 21009KT 21/M03 A2973 RMK A01 T02081026  RH  021%=      5-min Rain = 0
KAD1 250235Z 21009KT 21/M03 A2973 RMK A01 T02071026  RH  021%=      5-min Rain = 0
KAD1 250236Z 21009KT 21/M03 A2973 RMK A01 T02071027  RH  021%=      5-min Rain = 0
KAD1 250237Z 21009KT 21/M03 A2973 RMK A01 T02071027  RH  021%=      5-min Rain = 0
KAD1 250238Z 21009KT 21/M03 A2973 RMK A01 T02081026  RH  021%=      5-min Rain = 0
KAD1 250239Z 21009KT 21/M03 A2973 RMK A01 T02081027  RH  020%=      5-min Rain = 0
KAD1 250240Z 21009KT 21/M03 A2973 RMK A01 T02081026  RH  020%=      5-min Rain = 0
KAD1 250241Z 21009KT 21/M03 A2973 RMK A01 T02081026  RH  021%=      5-min Rain = 0
KAD1 250242Z 21009KT 21/M03 A2973 RMK A01 T02081025  RH  021%=      5-min Rain = 0
KAD1 250243Z 21010KT 21/M03 A2973 RMK A01 T02081025  RH  021%=      5-min Rain = 0
KAD1 250244Z 21011KT 21/M03 A2973 RMK A01 T02081025  RH  021%=      5-min Rain = 0
KAD1 250245Z 21010KT 21/M03 A2973 RMK A01 T02071027  RH  021%=      5-min Rain = 0
KAD1 250246Z 21010KT 21/M03 A2973 RMK A01 T02091027  RH  020%=      5-min Rain = 0
KAD1 250247Z 21010KT 21/M03 A2973 RMK A01 T02101027  RH  020%=      5-min Rain = 0
KAD1 250248Z 21010KT 21/M03 A2973 RMK A01 T02111027  RH  020%=      5-min Rain = 0
KAD1 250249Z 21010KT 21/M03 A2973 RMK A01 T02121028  RH  020%=      5-min Rain = 0
KAD1 250250Z 21010KT 21/M03 A2973 RMK A01 T02131028  RH  020%=      5-min Rain = 0
KAD1 250251Z 21010KT 21/M03 A2973 RMK A01 T02131028  RH  020%=      5-min Rain = 0
KAD1 250252Z 22009KT 21/M03 A2973 RMK A01 T02141028  RH  020%=      5-min Rain = 0
KAD1 250253Z 22009KT 21/M03 A2973 RMK A01 T02141029  RH  019%=      5-min Rain = 0
KAD1 250254Z 22008KT 22/M03 A2973 RMK A01 T02151028  RH  019%=      5-min Rain = 0
KAD1 250255Z 23008KT 22/M03 A2973 RMK A01 T02151028  RH  019%=      5-min Rain = 0
KAD1 250256Z 23008KT 21/M03 A2973 RMK A01 T02141027  RH  020%=      5-min Rain = 0
KAD1 250257Z 23007KT 21/M03 A2973 RMK A01 T02131026  RH  020%=      5-min Rain = 0
KAD1 250258Z 23007KT 21/M03 A2974 RMK A01 T02111027  RH  020%=      5-min Rain = 0
KAD1 250259Z 23007KT 21/M03 A2974 RMK A01 T02111028  RH  020%=      5-min Rain = 0
KAD1 250300Z 23007KT 21/M03 A2974 RMK A01 T02111030  RH  020%=      5-min Rain = 0
KAD1 250301Z 23007KT 21/M03 A2974 RMK A01 T02121029  RH  020%=      5-min Rain = 0
KAD1 250302Z 23008KT 21/M03 A2974 RMK A01 T02131029  RH  020%=      5-min Rain = 0
KAD1 250303Z 23008KT 21/M03 A2974 RMK A01 T02121028  RH  020%=      5-min Rain = 0
KAD1 250304Z 22008KT 21/M03 A2974 RMK A01 T02121028  RH  020%=      5-min Rain = 0
KAD1 250305Z 22009KT 21/M03 A2974 RMK A01 T02111027  RH  020%=      5-min Rain = 0
KAD1 250306Z 22009KT 21/M03 A2974 RMK A01 T02111028  RH  020%=      5-min Rain = 0
KAD1 250307Z 22010KT 21/M03 A2974 RMK A01 T02111029  RH  020%=      5-min Rain = 0
KAD1 250308Z 22011KT 21/M03 A2975 RMK A01 T02121031  RH  019%=      5-min Rain = 0
KAD1 250309Z 22011KT 21/M03 A2975 RMK A01 T02141032  RH  019%=      5-min Rain = 0
KAD1 250310Z 22011KT 22/M03 A2975 RMK A01 T02181034  RH  018%=      5-min Rain = 0
KAD1 250311Z 22010KT 22/M04 A2975 RMK A01 T02231035  RH  018%=      5-min Rain = 0
KAD1 250312Z 22009KT 23/M04 A2975 RMK A01 T02271036  RH  017%=      5-min Rain = 0
KAD1 250313Z 22008KT 23/M04 A2975 RMK A01 T02301036  RH  017%=      5-min Rain = 0
KAD1 250314Z 22008KT 23/M04 A2975 RMK A01 T02311035  RH  017%=      5-min Rain = 0
KAD1 250315Z 23008KT 23/M03 A2975 RMK A01 T02301033  RH  017%=      5-min Rain = 0
KAD1 250316Z 23008KT 23/M03 A2975 RMK A01 T02281032  RH  017%=      5-min Rain = 0
KAD1 250317Z 24008KT 23/M03 A2975 RMK A01 T02261033  RH  018%=      5-min Rain = 0
KAD1 250318Z 24007KT 23/M03 A2975 RMK A01 T02251033  RH  018%=      5-min Rain = 0
KAD1 250319Z 25008KT 23/M04 A2975 RMK A01 T02251035  RH  017%=      5-min Rain = 0
KAD1 250320Z 25008KT 23/M04 A2975 RMK A01 T02261036  RH  017%=      5-min Rain = 0
KAD1 250321Z 25008KT 23/M04 A2975 RMK A01 T02281035  RH  017%=      5-min Rain = 0
KAD1 250322Z 25008KT 23/M04 A2975 RMK A01 T02281036  RH  017%=      5-min Rain = 0
KAD1 250323Z 25007KT 23/M04 A2975 RMK A01 T02281036  RH  017%=      5-min Rain = 0
KAD1 250324Z 25008KT 23/M04 A2975 RMK A01 T02281035  RH  017%=      5-min Rain = 0
KAD1 250325Z 25009KT 23/M04 A2975 RMK A01 T02281036  RH  017%=      5-min Rain = 0
KAD1 250326Z 25009KT 23/M04 A2975 RMK A01 T02281035  RH  017%=      5-min Rain = 0
KAD1 250327Z 26009KT 23/M04 A2975 RMK A01 T02281036  RH  017%=      5-min Rain = 0
KAD1 250328Z 26009KT 23/M04 A2975 RMK A01 T02291036  RH  017%=      5-min Rain = 0
KAD1 250329Z 25009KT 23/M04 A2975 RMK A01 T02291035  RH  017%=      5-min Rain = 0
KAD1 250330Z 26009KT 23/M04 A2975 RMK A01 T02281035  RH  017%=      5-min Rain = 0
KAD1 250331Z 26009KT 23/M03 A2975 RMK A01 T02261034  RH  017%=      5-min Rain = 0
KAD1 250332Z 26009KT 23/M04 A2975 RMK A01 T02251035  RH  017%=      5-min Rain = 0
KAD1 250333Z 26009KT 22/M04 A2975 RMK A01 T02241036  RH  017%=      5-min Rain = 0
KAD1 250334Z 26008KT 22/M04 A2975 RMK A01 T02241036  RH  017%=      5-min Rain = 0
KAD1 250335Z 27008KT 22/M04 A2975 RMK A01 T02241036  RH  017%=      5-min Rain = 0
KAD1 250336Z 27008KT 22/M04 A2975 RMK A01 T02241037  RH  017%=      5-min Rain = 0
KAD1 250337Z 26008KT 23/M04 A2974 RMK A01 T02251039  RH  017%=      5-min Rain = 0
KAD1 250338Z 26008KT 23/M04 A2974 RMK A01 T02271038  RH  017%=      5-min Rain = 0
KAD1 250339Z 26008KT 23/M04 A2974 RMK A01 T02281037  RH  017%=      5-min Rain = 0
KAD1 250340Z 26009KT 23/M04 A2974 RMK A01 T02271035  RH  017%=      5-min Rain = 0
KAD1 250341Z 26008KT 23/M04 A2974 RMK A01 T02251036  RH  017%=      5-min Rain = 0
KAD1 250342Z 26009KT 22/M04 A2974 RMK A01 T02241036  RH  017%=      5-min Rain = 0
KAD1 250343Z 26009KT 22/M04 A2974 RMK A01 T02231036  RH  017%=      5-min Rain = 0
KAD1 250344Z 26009KT 22/M04 A2974 RMK A01 T02221036  RH  018%=      5-min Rain = 0
KAD1 250345Z 27008KT 22/M04 A2974 RMK A01 T02221038  RH  017%=      5-min Rain = 0
KAD1 250346Z 26007KT 22/M04 A2974 RMK A01 T02241038  RH  017%=      5-min Rain = 0
KAD1 250347Z 27008KT 23/M04 A2974 RMK A01 T02251038  RH  017%=      5-min Rain = 0
KAD1 250348Z 26007KT 23/M04 A2974 RMK A01 T02251037  RH  017%=      5-min Rain = 0
KAD1 250349Z 26007KT 22/M04 A2974 RMK A01 T02241036  RH  017%=      5-min Rain = 0
KAD1 250350Z 26007KT 22/M04 A2974 RMK A01 T02221035  RH  018%=      5-min Rain = 0
KAD1 250351Z 26007KT 22/M04 A2974 RMK A01 T02211036  RH  018%=      5-min Rain = 0
KAD1 250352Z 26007KT 22/M03 A2974 RMK A01 T02201034  RH  018%=      5-min Rain = 0
KAD1 250353Z 26007KT 22/M03 A2974 RMK A01 T02181033  RH  018%=      5-min Rain = 0
KAD1 250354Z 25007KT 22/M03 A2974 RMK A01 T02161034  RH  018%=      5-min Rain = 0
KAD1 250355Z 26006KT 22/M04 A2974 RMK A01 T02171035  RH  018%=      5-min Rain = 0
KAD1 250356Z 25006KT 22/M04 A2974 RMK A01 T02181036  RH  018%=      5-min Rain = 0
KAD1 250357Z 25006KT 22/M04 A2974 RMK A01 T02191036  RH  018%=      5-min Rain = 0
KAD1 250358Z 25006KT 22/M04 A2974 RMK A01 T02201036  RH  018%=      5-min Rain = 0
KAD1 250359Z 24007KT 22/M04 A2974 RMK A01 T02201036  RH  018%=      5-min Rain = 0
KAD1 250400Z 24007KT 22/M04 A2974 RMK A01 T02191035  RH  018%=      5-min Rain = 0
KAD1 250401Z 25006KT 22/M03 A2974 RMK A01 T02181033  RH  018%=      5-min Rain = 0
KAD1 250402Z 24006KT 22/M03 A2974 RMK A01 T02161033  RH  019%=      5-min Rain = 0
KAD1 250403Z 25006KT 22/M03 A2974 RMK A01 T02151033  RH  019%=      5-min Rain = 0
KAD1 250404Z 25006KT 21/M03 A2974 RMK A01 T02131034  RH  019%=      5-min Rain = 0
KAD1 250405Z 25006KT 21/M04 A2974 RMK A01 T02141037  RH  018%=      5-min Rain = 0
KAD1 250406Z 25005KT 22/M04 A2975 RMK A01 T02151036  RH  018%=      5-min Rain = 0
KAD1 250407Z 25006KT 22/M03 A2974 RMK A01 T02161034  RH  018%=      5-min Rain = 0
KAD1 250408Z 25005KT 22/M03 A2974 RMK A01 T02151031  RH  019%=      5-min Rain = 0
KAD1 250409Z 25004KT 21/M03 A2974 RMK A01 T02131034  RH  019%=      5-min Rain = 0
KAD1 250410Z 24005KT 21/M04 A2974 RMK A01 T02141037  RH  018%=      5-min Rain = 0
KAD1 250411Z 24005KT 22/M04 A2974 RMK A01 T02161037  RH  018%=      5-min Rain = 0
KAD1 250412Z 24005KT 22/M03 A2974 RMK A01 T02171034  RH  018%=      5-min Rain = 0
KAD1 250413Z 24005KT 21/M03 A2974 RMK A01 T02141030  RH  019%=      5-min Rain = 0
KAD1 250414Z 24005KT 21/M03 A2974 RMK A01 T02111031  RH  019%=      5-min Rain = 0
KAD1 250415Z 24005KT 21/M03 A2974 RMK A01 T02101030  RH  020%=      5-min Rain = 0
KAD1 250416Z 24004KT 21/M03 A2974 RMK A01 T02091031  RH  020%=      5-min Rain = 0
KAD1 250417Z 24004KT 21/M03 A2974 RMK A01 T02091032  RH  020%=      5-min Rain = 0
KAD1 250418Z 24005KT 21/M03 A2974 RMK A01 T02091030  RH  020%=      5-min Rain = 0
KAD1 250419Z 26005KT 21/M03 A2974 RMK A01 T02091030  RH  020%=      5-min Rain = 0
KAD1 250420Z 28006KT 21/M03 A2975 RMK A01 T02081028  RH  020%=      5-min Rain = 0
KAD1 250421Z 29018G27KT 21/M03 A2975 RMK A01 T02051029  RH  020%=      5-min Rain = 0
KAD1 250422Z 32021KT 22/M04 A2975 RMK A01 T02181035  RH  018%=      5-min Rain = 0
KAD1 250423Z 32017KT 23/M04 A2975 RMK A01 T02311035  RH  017%=      5-min Rain = 0
KAD1 250424Z 32014KT 24/M04 A2976 RMK A01 T02361035  RH  016%=      5-min Rain = 0
KAD1 250425Z 32016KT 24/M04 A2976 RMK A01 T02361035  RH  016%=      5-min Rain = 0
KAD1 250426Z 32014KT 23/M03 A2976 RMK A01 T02341033  RH  017%=      5-min Rain = 0
KAD1 250427Z 31014KT 23/M03 A2976 RMK A01 T02311028  RH  018%=      5-min Rain = 0
KAD1 250428Z 33017KT 23/M01 A2976 RMK A01 T02281011  RH  020%=      5-min Rain = 0
KAD1 250429Z 33016KT 23/01 A2976 RMK A01 T02260005  RH  023%=      5-min Rain = 0
KAD1 250430Z 34014KT 22/02 A2976 RMK A01 T02240015  RH  025%=      5-min Rain = 0
KAD1 250431Z 33013KT 22/02 A2976 RMK A01 T02220019  RH  026%=      5-min Rain = 0
KAD1 250432Z 34012KT 22/03 A2977 RMK A01 T02210025  RH  028%=      5-min Rain = 0
KAD1 250433Z 34011KT 22/03 A2977 RMK A01 T02190026  RH  028%=      5-min Rain = 0
KAD1 250434Z 36010KT 22/03 A2977 RMK A01 T02190027  RH  028%=      5-min Rain = 0
KAD1 250435Z 00010KT 22/02 A2977 RMK A01 T02170024  RH  028%=      5-min Rain = 0
KAD1 250436Z 02010KT 22/03 A2977 RMK A01 T02150026  RH  029%=      5-min Rain = 0
KAD1 250437Z 02009KT 21/02 A2977 RMK A01 T02140017  RH  027%=      5-min Rain = 0
KAD1 250438Z 03008KT 21/01 A2977 RMK A01 T02130008  RH  026%=      5-min Rain = 0
KAD1 250439Z 03009KT 21/01 A2977 RMK A01 T02120010  RH  026%=      5-min Rain = 0
KAD1 250440Z 04011KT 21/02 A2977 RMK A01 T02120017  RH  027%=      5-min Rain = 0
KAD1 250441Z 03010KT 21/02 A2977 RMK A01 T02130016  RH  027%=      5-min Rain = 0
KAD1 250442Z 03010KT 21/01 A2977 RMK A01 T02140011  RH  026%=      5-min Rain = 0
KAD1 250443Z 03008KT 21/01 A2977 RMK A01 T02130010  RH  026%=      5-min Rain = 0
KAD1 250444Z 03008KT 21/01 A2977 RMK A01 T02120009  RH  026%=      5-min Rain = 0
KAD1 250445Z 03008KT 21/01 A2977 RMK A01 T02110007  RH  026%=      5-min Rain = 0
KAD1 250446Z 04008KT 21/01 A2977 RMK A01 T02110005  RH  025%=      5-min Rain = 0
KAD1 250447Z 06008KT 21/01 A2977 RMK A01 T02100010  RH  026%=      5-min Rain = 0
KAD1 250448Z 07009KT 21/02 A2977 RMK A01 T02090024  RH  029%=      5-min Rain = 0
KAD1 250449Z 08010KT 21/03 A2977 RMK A01 T02070033  RH  032%=      5-min Rain = 0
KAD1 250450Z 08010KT 21/04 A2977 RMK A01 T02050035  RH  033%=      5-min Rain = 0
KAD1 250451Z 08010KT 21/04 A2977 RMK A01 T02050036  RH  033%=      5-min Rain = 0
KAD1 250452Z 08010KT 21/04 A2978 RMK A01 T02050036  RH  033%=      5-min Rain = 0
KAD1 250453Z 07009KT 21/04 A2978 RMK A01 T02050036  RH  033%=      5-min Rain = 0
KAD1 250454Z 07010KT 20/04 A2978 RMK A01 T02040036  RH  033%=      5-min Rain = 0
KAD1 250455Z 07011KT 20/04 A2978 RMK A01 T02010036  RH  033%=      5-min Rain = 0
KAD1 250456Z 05015KT 20/04 A2979 RMK A01 T01990036  RH  034%=      5-min Rain = 0
KAD1 250457Z 04020KT 20/04 A298 RMK A01 T01980038  RH  035%=      5-min Rain = 0
KAD1 250458Z 05020KT 20/04 A298 RMK A01 T01970039  RH  035%=      5-min Rain = 0
KAD1 250459Z 05017KT 20/04 A298 RMK A01 T01980039  RH  035%=      5-min Rain = 0

Page generated in 0.1663 seconds.